Wetterdaten: Freitag, 09.12.2022
Datum Zeit Temp. Aussen Temp. o. S. Temp +5cm Feuchte Auss Luftdruck Regen Sonnenschein Regendauer Solar Windben Empfang
09.12.2022 00:00 2,7 C 2,2 C 0,0 C 92 % 1007,5 hPa 0,0 l/m 0 min 0 min 0 W/m 12,9 km/h (3 Bft) 100,00 %
09.12.2022 00:02 2,7 C 2,2 C 0,0 C 92 % 1007,5 hPa 0,0 l/m 0 min 0 min 0 W/m 6,4 km/h (2 Bft) 100,00 %
09.12.2022 00:04 2,7 C 2,2 C 0,0 C 92 % 1007,5 hPa 0,0 l/m 0 min 0 min 0 W/m 3,2 km/h (1 Bft) 91,89 %
09.12.2022 00:08 2,7 C 2,2 C 0,0 C 92 % 1007,4 hPa 0,0 l/m 0 min 0 min 0 W/m 3,2 km/h (1 Bft) 95,05 %
09.12.2022 00:10 2,7 C 2,2 C 0,0 C 92 % 1007,4 hPa 0,0 l/m 0 min 0 min 0 W/m 6,4 km/h (2 Bft) 95,45 %
09.12.2022 00:12 2,7 C 2,2 C 0,0 C 92 % 1007,5 hPa 0,0 l/m 0 min 0 min 0 W/m 6,4 km/h (2 Bft) 97,73 %
09.12.2022 00:14 2,7 C 2,2 C 0,0 C 92 % 1007,5 hPa 0,0 l/m 0 min 0 min 0 W/m 9,7 km/h (2 Bft) 93,10 %
09.12.2022 00:16 2,7 C 2,2 C 0,0 C 92 % 1007,5 hPa 0,0 l/m 0 min 0 min 0 W/m 3,2 km/h (1 Bft) 86,11 %
09.12.2022 00:18 2,7 C 2,2 C 0,0 C 92 % 1007,5 hPa 0,0 l/m 0 min 0 min 0 W/m 6,4 km/h (2 Bft) 96,23 %
09.12.2022 00:20 2,7 C 2,2 C 0,0 C 92 % 1007,5 hPa 0,0 l/m 0 min 0 min 0 W/m 6,4 km/h (2 Bft) 94,44 %
09.12.2022 00:22 2,6 C 2,2 C 0,0 C 92 % 1007,6 hPa 0,0 l/m 0 min 0 min 0 W/m 6,4 km/h (2 Bft) 57,69 %
09.12.2022 00:24 2,6 C 2,2 C 0,0 C 92 % 1007,5 hPa 0,0 l/m 0 min 0 min 0 W/m 6,4 km/h (2 Bft) 96,23 %
09.12.2022 00:26 2,6 C 2,2 C 0,0 C 92 % 1007,5 hPa 0,0 l/m 0 min 0 min 0 W/m 6,4 km/h (2 Bft) 95,12 %
09.12.2022 00:28 2,6 C 2,2 C 0,0 C 92 % 1007,5 hPa 0,0 l/m 0 min 0 min 0 W/m 6,4 km/h (2 Bft) 93,75 %
09.12.2022 00:30 2,6 C 2,2 C 0,0 C 92 % 1007,5 hPa 0,0 l/m 0 min 0 min 0 W/m 3,2 km/h (1 Bft) 96,23 %
09.12.2022 00:32 2,6 C 2,2 C 0,0 C 92 % 1007,5 hPa 0,0 l/m 0 min 0 min 0 W/m 3,2 km/h (1 Bft) 95,35 %
09.12.2022 00:34 2,6 C 2,2 C 0,0 C 92 % 1007,5 hPa 0,0 l/m 0 min 0 min 0 W/m 16,1 km/h (3 Bft) 97,83 %
09.12.2022 00:36 2,6 C 2,2 C 0,0 C 92 % 1007,4 hPa 0,0 l/m 0 min 0 min 0 W/m 3,2 km/h (1 Bft) 97,44 %
09.12.2022 00:38 2,6 C 2,2 C 0,0 C 92 % 1007,4 hPa 0,0 l/m 0 min 0 min 0 W/m 6,4 km/h (2 Bft) 98,04 %
09.12.2022 00:40 2,6 C 2,2 C 0,0 C 92 % 1007,4 hPa 0,0 l/m 0 min 0 min 0 W/m 3,2 km/h (1 Bft) 98,00 %
09.12.2022 00:42 2,6 C 2,2 C 0,0 C 92 % 1007,5 hPa 0,0 l/m 0 min 0 min 0 W/m 3,2 km/h (1 Bft) 94,23 %
09.12.2022 00:47 2,6 C 2,2 C 0,0 C 92 % 1007,5 hPa 0,0 l/m 0 min 0 min 0 W/m 3,2 km/h (1 Bft) 98,53 %
09.12.2022 00:48 2,6 C 2,2 C 0,0 C 92 % 1007,4 hPa 0,0 l/m 0 min 0 min 0 W/m 0,0 km/h (0 Bft) 96,30 %
09.12.2022 00:50 2,6 C 2,2 C 0,0 C 92 % 1007,4 hPa 0,0 l/m 0 min 0 min 0 W/m 3,2 km/h (1 Bft) 100,00 %
09.12.2022 00:52 2,6 C 2,2 C 0,0 C 92 % 1007,5 hPa 0,0 l/m 0 min 0 min 0 W/m 3,2 km/h (1 Bft) 100,00 %
09.12.2022 00:54 2,6 C 2,2 C 0,0 C 92 % 1007,4 hPa 0,0 l/m 0 min 0 min 0 W/m 3,2 km/h (1 Bft) 97,44 %
09.12.2022 00:56 2,6 C 1,7 C 0,0 C 92 % 1007,5 hPa 0,0 l/m 0 min 0 min 0 W/m 0,0 km/h (0 Bft) 100,00 %
09.12.2022 00:58 2,6 C 1,7 C 0,0 C 92 % 1007,5 hPa 0,0 l/m 0 min 0 min 0 W/m 3,2 km/h (1 Bft) 98,04 %
09.12.2022 01:00 2,5 C 1,7 C -0,6 C 92 % 1007,4 hPa 0,0 l/m 0 min 0 min 0 W/m 0,0 km/h (0 Bft) 100,00 %
09.12.2022 01:02 2,5 C 1,7 C -0,6 C 92 % 1007,4 hPa 0,0 l/m 0 min 0 min 0 W/m 6,4 km/h (2 Bft) 100,00 %
09.12.2022 01:04 2,5 C 1,7 C -0,6 C 92 % 1007,4 hPa 0,0 l/m 0 min 0 min 0 W/m 3,2 km/h (1 Bft) 100,00 %
09.12.2022 01:06 2,4 C 1,7 C -0,6 C 92 % 1007,4 hPa 0,0 l/m 0 min 0 min 0 W/m 6,4 km/h (2 Bft) 98,31 %
09.12.2022 01:08 2,4 C 1,7 C -0,6 C 91 % 1007,3 hPa 0,0 l/m 0 min 0 min 0 W/m 3,2 km/h (1 Bft) 100,00 %
09.12.2022 01:10 2,3 C 1,7 C -0,6 C 91 % 1007,3 hPa 0,0 l/m 0 min 0 min 0 W/m 0,0 km/h (0 Bft) 100,00 %
09.12.2022 01:12 2,3 C 1,7 C -0,6 C 91 % 1007,3 hPa 0,0 l/m 0 min 0 min 0 W/m 0,0 km/h (0 Bft) 100,00 %
09.12.2022 01:14 2,3 C 1,1 C -0,6 C 91 % 1007,3 hPa 0,0 l/m 0 min 0 min 0 W/m 3,2 km/h (1 Bft) 100,00 %
09.12.2022 01:16 2,3 C 1,1 C -0,6 C 91 % 1007,3 hPa 0,0 l/m 0 min 0 min 0 W/m 3,2 km/h (1 Bft) 100,00 %
09.12.2022 01:18 2,2 C 1,1 C -0,6 C 91 % 1007,2 hPa 0,0 l/m 0 min 0 min 0 W/m 3,2 km/h (1 Bft) 100,00 %
09.12.2022 01:20 2,2 C 1,1 C -0,6 C 91 % 1007,3 hPa 0,0 l/m 0 min 0 min 0 W/m 3,2 km/h (1 Bft) 98,31 %
09.12.2022 01:22 2,2 C 1,1 C -0,6 C 92 % 1007,2 hPa 0,0 l/m 0 min 0 min 0 W/m 0,0 km/h (0 Bft) 98,00 %
09.12.2022 01:24 2,2 C 1,1 C -0,6 C 92 % 1007,2 hPa 0,0 l/m 0 min 0 min 0 W/m 0,0 km/h (0 Bft) 100,00 %
09.12.2022 01:26 2,1 C 1,1 C -1,1 C 92 % 1007,2 hPa 0,0 l/m 0 min 0 min 0 W/m 0,0 km/h (0 Bft) 97,87 %
09.12.2022 01:28 2,1 C 1,1 C -1,1 C 92 % 1007,2 hPa 0,0 l/m 0 min 0 min 0 W/m 0,0 km/h (0 Bft) 100,00 %
09.12.2022 01:30 2,1 C 1,1 C -1,1 C 92 % 1007,3 hPa 0,0 l/m 0 min 0 min 0 W/m 3,2 km/h (1 Bft) 100,00 %
09.12.2022 01:32 2,1 C 1,1 C -1,1 C 92 % 1007,2 hPa 0,0 l/m 0 min 0 min 0 W/m 9,7 km/h (2 Bft) 98,08 %
09.12.2022 01:34 2,1 C 1,1 C -1,1 C 92 % 1007,3 hPa 0,0 l/m 0 min 0 min 0 W/m 3,2 km/h (1 Bft) 98,00 %
09.12.2022 01:36 2,1 C 1,1 C -1,1 C 92 % 1007,3 hPa 0,0 l/m 0 min 0 min 0 W/m 3,2 km/h (1 Bft) 93,48 %
09.12.2022 01:38 2,0 C 1,1 C -1,1 C 92 % 1007,2 hPa 0,0 l/m 0 min 0 min 0 W/m 6,4 km/h (2 Bft) 95,35 %
09.12.2022 01:40 2,0 C 1,1 C -1,1 C 92 % 1007,2 hPa 0,0 l/m 0 min 0 min 0 W/m 0,0 km/h (0 Bft) 97,78 %
09.12.2022 01:42 1,9 C 1,1 C -1,1 C 92 % 1007,3 hPa 0,0 l/m 0 min 0 min 0 W/m 0,0 km/h (0 Bft) 97,78 %
09.12.2022 01:44 1,9 C 1,1 C -1,1 C 92 % 1007,3 hPa 0,0 l/m 0 min 0 min 0 W/m 3,2 km/h (1 Bft) 94,64 %
09.12.2022 01:46 1,9 C 1,1 C -1,1 C 92 % 1007,3 hPa 0,0 l/m 0 min 0 min 0 W/m 3,2 km/h (1 Bft) 97,37 %
09.12.2022 01:48 1,9 C 1,1 C -1,1 C 92 % 1007,2 hPa 0,0 l/m 0 min 0 min 0 W/m 0,0 km/h (0 Bft) 98,04 %
09.12.2022 01:50 1,9 C 1,1 C -1,1 C 92 % 1007,3 hPa 0,0 l/m 0 min 0 min 0 W/m 3,2 km/h (1 Bft) 96,00 %
09.12.2022 01:52 1,9 C 1,1 C -1,1 C 92 % 1007,3 hPa 0,0 l/m 0 min 0 min 0 W/m 0,0 km/h (0 Bft) 96,00 %
09.12.2022 01:54 1,9 C 1,1 C -1,1 C 92 % 1007,3 hPa 0,0 l/m 0 min 0 min 0 W/m 0,0 km/h (0 Bft) 95,00 %
09.12.2022 01:56 1,9 C 1,1 C -1,1 C 92 % 1007,3 hPa 0,0 l/m 0 min 0 min 0 W/m 3,2 km/h (1 Bft) 95,56 %
09.12.2022 01:58 1,9 C 1,1 C -1,1 C 92 % 1007,3 hPa 0,0 l/m 0 min 0 min 0 W/m 0,0 km/h (0 Bft) 95,45 %
09.12.2022 02:00 1,9 C 1,1 C -0,6 C 92 % 1007,3 hPa 0,0 l/m 0 min 0 min 0 W/m 0,0 km/h (0 Bft) 91,23 %
09.12.2022 02:02 1,9 C 1,1 C -0,6 C 92 % 1007,3 hPa 0,0 l/m 0 min 0 min 0 W/m 0,0 km/h (0 Bft) 93,02 %
09.12.2022 02:04 1,9 C 1,1 C -0,6 C 92 % 1007,3 hPa 0,0 l/m 0 min 0 min 0 W/m 0,0 km/h (0 Bft) 54,55 %
09.12.2022 02:06 1,9 C 1,1 C -0,6 C 92 % 1007,3 hPa 0,0 l/m 0 min 0 min 0 W/m 3,2 km/h (1 Bft) 96,30 %
09.12.2022 02:08 1,9 C 1,1 C -0,6 C 92 % 1007,2 hPa 0,0 l/m 0 min 0 min 0 W/m 0,0 km/h (0 Bft) 94,29 %
09.12.2022 02:10 1,9 C 1,7 C -0,6 C 92 % 1007,2 hPa 0,0 l/m 0 min 0 min 0 W/m 3,2 km/h (1 Bft) 96,36 %
09.12.2022 02:12 1,9 C 1,1 C -0,6 C 92 % 1007,2 hPa 0,0 l/m 0 min 0 min 0 W/m 3,2 km/h (1 Bft) 97,14 %
09.12.2022 02:14 1,9 C 1,1 C -0,6 C 92 % 1007,3 hPa 0,0 l/m 0 min 0 min 0 W/m 9,7 km/h (2 Bft) 96,55 %
09.12.2022 02:16 1,9 C 1,1 C -0,6 C 92 % 1007,3 hPa 0,0 l/m 0 min 0 min 0 W/m 3,2 km/h (1 Bft) 95,12 %
09.12.2022 02:18 1,8 C 1,1 C -0,6 C 92 % 1007,2 hPa 0,0 l/m 0 min 0 min 0 W/m 3,2 km/h (1 Bft) 91,49 %
09.12.2022 02:20 1,8 C 1,1 C -0,6 C 92 % 1007,3 hPa 0,0 l/m 0 min 0 min 0 W/m 6,4 km/h (2 Bft) 98,18 %
09.12.2022 02:22 1,8 C 1,1 C -0,6 C 92 % 1007,3 hPa 0,0 l/m 0 min 0 min 0 W/m 6,4 km/h (2 Bft) 97,14 %
09.12.2022 02:24 1,8 C 1,1 C -0,6 C 92 % 1007,3 hPa 0,0 l/m 0 min 0 min 0 W/m 3,2 km/h (1 Bft) 97,14 %
09.12.2022 02:26 1,8 C 1,1 C -0,6 C 92 % 1007,3 hPa 0,0 l/m 0 min 0 min 0 W/m 3,2 km/h (1 Bft) 95,59 %
09.12.2022 02:28 1,8 C 1,1 C -0,6 C 92 % 1007,4 hPa 0,0 l/m 0 min 0 min 0 W/m 9,7 km/h (2 Bft) 97,73 %
09.12.2022 02:30 1,8 C 1,1 C -0,6 C 92 % 1007,3 hPa 0,0 l/m 0 min 0 min 0 W/m 3,2 km/h (1 Bft) 97,83 %
09.12.2022 02:32 1,8 C 1,1 C -0,6 C 92 % 1007,4 hPa 0,0 l/m 0 min 0 min 0 W/m 3,2 km/h (1 Bft) 100,00 %
09.12.2022 02:34 1,8 C 1,1 C -0,6 C 92 % 1007,4 hPa 0,0 l/m 0 min 0 min 0 W/m 3,2 km/h (1 Bft) 95,74 %
09.12.2022 02:36 1,8 C 1,1 C -0,6 C 92 % 1007,4 hPa 0,0 l/m 0 min 0 min 0 W/m 0,0 km/h (0 Bft) 98,18 %
09.12.2022 02:38 1,8 C 1,1 C -0,6 C 92 % 1007,4 hPa 0,0 l/m 0 min 0 min 0 W/m 0,0 km/h (0 Bft) 97,83 %
09.12.2022 02:40 1,8 C 1,1 C -0,6 C 92 % 1007,4 hPa 0,0 l/m 0 min 0 min 0 W/m 0,0 km/h (0 Bft) 97,67 %
09.12.2022 02:42 1,8 C 1,1 C -0,6 C 92 % 1007,4 hPa 0,0 l/m 0 min 0 min 0 W/m 0,0 km/h (0 Bft) 93,33 %
09.12.2022 02:44 1,8 C 1,1 C -0,6 C 92 % 1007,4 hPa 0,0 l/m 0 min 0 min 0 W/m 0,0 km/h (0 Bft) 97,78 %
09.12.2022 02:46 1,8 C 1,1 C -0,6 C 92 % 1007,4 hPa 0,0 l/m 0 min 0 min 0 W/m 0,0 km/h (0 Bft) 96,36 %
09.12.2022 02:48 1,8 C 1,1 C -0,6 C 92 % 1007,4 hPa 0,0 l/m 0 min 0 min 0 W/m 0,0 km/h (0 Bft) 97,87 %
09.12.2022 02:50 1,8 C 1,1 C -0,6 C 92 % 1007,4 hPa 0,0 l/m 0 min 0 min 0 W/m 0,0 km/h (0 Bft) 97,67 %
09.12.2022 02:52 1,8 C 1,1 C -0,6 C 92 % 1007,4 hPa 0,0 l/m 0 min 0 min 0 W/m 0,0 km/h (0 Bft) 91,30 %
09.12.2022 02:54 1,8 C 1,1 C -0,6 C 92 % 1007,4 hPa 0,0 l/m 0 min 0 min 0 W/m 0,0 km/h (0 Bft) 97,83 %
09.12.2022 02:56 1,8 C 1,1 C -0,6 C 92 % 1007,4 hPa 0,0 l/m 0 min 0 min 0 W/m 0,0 km/h (0 Bft) 96,36 %
09.12.2022 02:58 1,8 C 1,1 C -0,6 C 92 % 1007,4 hPa 0,0 l/m 0 min 0 min 0 W/m 0,0 km/h (0 Bft) 100,00 %
09.12.2022 03:00 1,8 C 1,1 C -0,6 C 92 % 1007,4 hPa 0,0 l/m 0 min 0 min 0 W/m 0,0 km/h (0 Bft) 96,55 %
09.12.2022 03:02 1,8 C 1,1 C -0,6 C 92 % 1007,3 hPa 0,0 l/m 0 min 0 min 0 W/m 0,0 km/h (0 Bft) 93,02 %
09.12.2022 03:04 1,8 C 1,1 C -0,6 C 92 % 1007,3 hPa 0,0 l/m 0 min 0 min 0 W/m 0,0 km/h (0 Bft) 97,78 %
09.12.2022 03:06 1,8 C 1,1 C -0,6 C 92 % 1007,3 hPa 0,0 l/m 0 min 0 min 0 W/m 0,0 km/h (0 Bft) 97,67 %
09.12.2022 03:08 1,8 C 1,1 C -0,6 C 92 % 1007,3 hPa 0,0 l/m 0 min 0 min 0 W/m 0,0 km/h (0 Bft) 97,87 %
09.12.2022 03:10 1,8 C 1,1 C -0,6 C 92 % 1007,3 hPa 0,0 l/m 0 min 0 min 0 W/m 0,0 km/h (0 Bft) 97,83 %
09.12.2022 03:12 1,8 C 1,1 C -0,6 C 92 % 1007,3 hPa 0,0 l/m 0 min 0 min 0 W/m 0,0 km/h (0 Bft) 97,87 %
09.12.2022 03:14 1,7 C 1,1 C -0,6 C 92 % 1007,3 hPa 0,0 l/m 0 min 0 min 0 W/m 0,0 km/h (0 Bft) 98,18 %
09.12.2022 03:16 1,7 C 1,1 C -0,6 C 92 % 1007,3 hPa 0,0 l/m 0 min 0 min 0 W/m 6,4 km/h (2 Bft) 100,00 %
09.12.2022 03:18 1,7 C 1,1 C -0,6 C 93 % 1007,3 hPa 0,0 l/m 0 min 0 min 0 W/m 3,2 km/h (1 Bft) 100,00 %
09.12.2022 03:20 1,7 C 1,1 C -0,6 C 93 % 1007,2 hPa 0,0 l/m 0 min 0 min 0 W/m 3,2 km/h (1 Bft) 100,00 %
09.12.2022 03:22 1,7 C 1,1 C -0,6 C 93 % 1007,2 hPa 0,0 l/m 0 min 0 min 0 W/m 3,2 km/h (1 Bft) 100,00 %
09.12.2022 03:24 1,8 C 1,1 C -0,6 C 93 % 1007,2 hPa 0,0 l/m 0 min 0 min 0 W/m 3,2 km/h (1 Bft) 100,00 %
09.12.2022 03:26 1,7 C 1,1 C -0,6 C 93 % 1007,2 hPa 0,0 l/m 0 min 0 min 0 W/m 3,2 km/h (1 Bft) 100,00 %
09.12.2022 03:28 1,7 C 1,1 C -0,6 C 93 % 1007,2 hPa 0,0 l/m 0 min 0 min 0 W/m 3,2 km/h (1 Bft) 97,87 %
09.12.2022 03:30 1,7 C 1,1 C -0,6 C 93 % 1007,2 hPa 0,0 l/m 0 min 0 min 0 W/m 3,2 km/h (1 Bft) 100,00 %
09.12.2022 03:32 1,8 C 1,1 C -0,6 C 93 % 1007,1 hPa 0,0 l/m 0 min 0 min 0 W/m 3,2 km/h (1 Bft) 100,00 %
09.12.2022 03:34 1,7 C 1,1 C -0,6 C 93 % 1007,2 hPa 0,0 l/m 0 min 0 min 0 W/m 3,2 km/h (1 Bft) 100,00 %
09.12.2022 03:36 1,7 C 1,1 C -0,6 C 93 % 1007,1 hPa 0,0 l/m 0 min 0 min 0 W/m 3,2 km/h (1 Bft) 97,67 %
09.12.2022 03:38 1,7 C 1,1 C -0,6 C 93 % 1007,1 hPa 0,0 l/m 0 min 0 min 0 W/m 3,2 km/h (1 Bft) 97,87 %
09.12.2022 03:40 1,7 C 1,1 C -0,6 C 93 % 1007,1 hPa 0,0 l/m 0 min 0 min 0 W/m 6,4 km/h (2 Bft) 97,62 %
09.12.2022 03:42 1,7 C 1,1 C -0,6 C 93 % 1007,1 hPa 0,0 l/m 0 min 0 min 0 W/m 3,2 km/h (1 Bft) 97,87 %
09.12.2022 03:44 1,7 C 1,1 C -1,1 C 93 % 1007,1 hPa 0,0 l/m 0 min 0 min 0 W/m 0,0 km/h (0 Bft) 96,30 %
09.12.2022 03:46 1,7 C 1,1 C -1,1 C 93 % 1007,1 hPa 0,0 l/m 0 min 0 min 0 W/m 3,2 km/h (1 Bft) 95,00 %
09.12.2022 03:48 1,7 C 1,1 C -1,1 C 93 % 1007,1 hPa 0,0 l/m 0 min 0 min 0 W/m 3,2 km/h (1 Bft) 97,96 %
09.12.2022 03:50 1,7 C 1,1 C -1,1 C 93 % 1007,1 hPa 0,0 l/m 0 min 0 min 0 W/m 3,2 km/h (1 Bft) 95,00 %
09.12.2022 03:52 1,7 C 1,1 C -1,1 C 93 % 1007,1 hPa 0,0 l/m 0 min 0 min 0 W/m 3,2 km/h (1 Bft) 95,08 %
09.12.2022 03:54 1,7 C 1,1 C -1,1 C 93 % 1007,1 hPa 0,0 l/m 0 min 0 min 0 W/m 0,0 km/h (0 Bft) 97,50 %
09.12.2022 03:56 1,7 C 1,1 C -1,1 C 93 % 1007,1 hPa 0,0 l/m 0 min 0 min 0 W/m 3,2 km/h (1 Bft) 95,45 %
09.12.2022 03:58 1,7 C 1,1 C -1,1 C 93 % 1007,0 hPa 0,0 l/m 0 min 0 min 0 W/m 3,2 km/h (1 Bft) 97,83 %
09.12.2022 04:00 1,7 C 1,1 C -1,1 C 93 % 1007,0 hPa 0,0 l/m 0 min 0 min 0 W/m 3,2 km/h (1 Bft) 98,18 %
09.12.2022 04:02 1,7 C 1,1 C -1,1 C 93 % 1007,1 hPa 0,0 l/m 0 min 0 min 0 W/m 3,2 km/h (1 Bft) 100,00 %
09.12.2022 04:04 1,7 C 1,1 C -1,1 C 93 % 1007,0 hPa 0,0 l/m 0 min 0 min 0 W/m 3,2 km/h (1 Bft) 100,00 %
09.12.2022 04:06 1,7 C 1,1 C -1,1 C 93 % 1007,0 hPa 0,0 l/m 0 min 0 min 0 W/m 3,2 km/h (1 Bft) 95,35 %
09.12.2022 04:08 1,7 C 1,1 C -1,1 C 93 % 1007,0 hPa 0,0 l/m 0 min 0 min 0 W/m 3,2 km/h (1 Bft) 97,83 %
09.12.2022 04:10 1,7 C 1,1 C -1,1 C 93 % 1006,9 hPa 0,0 l/m 0 min 0 min 0 W/m 3,2 km/h (1 Bft) 100,00 %
09.12.2022 04:12 1,7 C 1,1 C -1,1 C 93 % 1006,9 hPa 0,0 l/m 0 min 0 min 0 W/m 3,2 km/h (1 Bft) 100,00 %
09.12.2022 04:14 1,6 C 1,1 C -1,1 C 93 % 1006,9 hPa 0,0 l/m 0 min 0 min 0 W/m 3,2 km/h (1 Bft) 100,00 %
09.12.2022 04:16 1,6 C 1,1 C -1,1 C 93 % 1006,9 hPa 0,0 l/m 0 min 0 min 0 W/m 0,0 km/h (0 Bft) 100,00 %
09.12.2022 04:18 1,6 C 1,1 C -1,1 C 93 % 1006,9 hPa 0,0 l/m 0 min 0 min 0 W/m 3,2 km/h (1 Bft) 100,00 %
09.12.2022 04:20 1,6 C 1,1 C -1,1 C 93 % 1006,9 hPa 0,0 l/m 0 min 0 min 0 W/m 3,2 km/h (1 Bft) 100,00 %
09.12.2022 04:22 1,7 C 1,1 C -1,1 C 93 % 1006,9 hPa 0,0 l/m 0 min 0 min 0 W/m 3,2 km/h (1 Bft) 100,00 %
09.12.2022 04:24 1,7 C 1,1 C -1,1 C 93 % 1006,9 hPa 0,0 l/m 0 min 0 min 0 W/m 3,2 km/h (1 Bft) 100,00 %
09.12.2022 04:26 1,7 C 1,1 C -1,1 C 93 % 1007,0 hPa 0,0 l/m 0 min 0 min 0 W/m 3,2 km/h (1 Bft) 100,00 %
09.12.2022 04:28 1,7 C 1,1 C -1,1 C 93 % 1006,9 hPa 0,0 l/m 0 min 0 min 0 W/m 3,2 km/h (1 Bft) 100,00 %
09.12.2022 04:30 1,7 C 1,1 C -1,1 C 93 % 1006,9 hPa 0,0 l/m 0 min 0 min 0 W/m 3,2 km/h (1 Bft) 100,00 %
09.12.2022 04:32 1,6 C 1,1 C -1,1 C 93 % 1007,0 hPa 0,0 l/m 0 min 0 min 0 W/m 6,4 km/h (2 Bft) 100,00 %
09.12.2022 04:34 1,6 C 1,1 C -1,1 C 93 % 1006,9 hPa 0,0 l/m 0 min 0 min 0 W/m 0,0 km/h (0 Bft) 100,00 %
09.12.2022 04:36 1,6 C 1,1 C -0,6 C 93 % 1006,9 hPa 0,0 l/m 0 min 0 min 0 W/m 0,0 km/h (0 Bft) 100,00 %
09.12.2022 04:38 1,6 C 1,1 C -0,6 C 93 % 1006,9 hPa 0,0 l/m 0 min 0 min 0 W/m 0,0 km/h (0 Bft) 100,00 %
09.12.2022 04:40 1,7 C 1,1 C -0,6 C 93 % 1006,9 hPa 0,0 l/m 0 min 0 min 0 W/m 3,2 km/h (1 Bft) 100,00 %
09.12.2022 04:42 1,7 C 1,1 C -0,6 C 93 % 1006,9 hPa 0,0 l/m 0 min 0 min 0 W/m 3,2 km/h (1 Bft) 97,96 %
09.12.2022 04:44 1,7 C 1,1 C -0,6 C 93 % 1006,8 hPa 0,0 l/m 0 min 0 min 0 W/m 3,2 km/h (1 Bft) 97,56 %
09.12.2022 04:46 1,7 C 1,1 C -0,6 C 93 % 1006,8 hPa 0,0 l/m 0 min 0 min 0 W/m 3,2 km/h (1 Bft) 100,00 %
09.12.2022 04:48 1,7 C 1,1 C -0,6 C 93 % 1006,8 hPa 0,0 l/m 0 min 0 min 0 W/m 3,2 km/h (1 Bft) 95,83 %
09.12.2022 04:50 1,7 C 1,1 C -0,6 C 93 % 1006,8 hPa 0,0 l/m 0 min 0 min 0 W/m 0,0 km/h (0 Bft) 97,10 %
09.12.2022 04:52 1,7 C 1,1 C -0,6 C 93 % 1006,8 hPa 0,0 l/m 0 min 0 min 0 W/m 0,0 km/h (0 Bft) 93,18 %
09.12.2022 04:54 1,7 C 1,1 C -0,6 C 93 % 1006,8 hPa 0,0 l/m 0 min 0 min 0 W/m 0,0 km/h (0 Bft) 95,65 %
09.12.2022 04:56 1,7 C 1,1 C -0,6 C 93 % 1006,8 hPa 0,0 l/m 0 min 0 min 0 W/m 3,2 km/h (1 Bft) 95,24 %
09.12.2022 04:58 1,7 C 1,1 C -0,6 C 93 % 1006,7 hPa 0,0 l/m 0 min 0 min 0 W/m 3,2 km/h (1 Bft) 95,74 %
09.12.2022 05:00 1,7 C 1,1 C -0,6 C 93 % 1006,7 hPa 0,0 l/m 0 min 0 min 0 W/m 0,0 km/h (0 Bft) 94,44 %
09.12.2022 05:02 1,7 C 1,1 C -0,6 C 93 % 1006,7 hPa 0,0 l/m 0 min 0 min 0 W/m 0,0 km/h (0 Bft) 95,74 %
09.12.2022 05:04 1,7 C 1,1 C -0,6 C 93 % 1006,8 hPa 0,0 l/m 0 min 0 min 0 W/m 3,2 km/h (1 Bft) 95,35 %
09.12.2022 05:06 1,7 C 1,1 C -0,6 C 93 % 1006,7 hPa 0,0 l/m 0 min 0 min 0 W/m 0,0 km/h (0 Bft) 94,34 %
09.12.2022 05:08 1,7 C 1,1 C -0,6 C 93 % 1006,7 hPa 0,0 l/m 0 min 0 min 0 W/m 3,2 km/h (1 Bft) 94,59 %
09.12.2022 05:10 1,7 C 1,1 C -0,6 C 93 % 1006,8 hPa 0,0 l/m 0 min 0 min 0 W/m 0,0 km/h (0 Bft) 92,31 %
09.12.2022 05:12 1,7 C 1,1 C -0,6 C 93 % 1006,7 hPa 0,0 l/m 0 min 0 min 0 W/m 0,0 km/h (0 Bft) 93,88 %
09.12.2022 05:14 1,7 C 1,1 C -0,6 C 93 % 1006,7 hPa 0,0 l/m 0 min 0 min 0 W/m 3,2 km/h (1 Bft) 95,00 %
09.12.2022 05:16 1,7 C 1,1 C -0,6 C 93 % 1006,7 hPa 0,0 l/m 0 min 0 min 0 W/m 3,2 km/h (1 Bft) 92,86 %
09.12.2022 05:18 1,7 C 1,1 C -0,6 C 93 % 1006,7 hPa 0,0 l/m 0 min 0 min 0 W/m 0,0 km/h (0 Bft) 93,33 %
09.12.2022 05:20 1,7 C 1,1 C -0,6 C 93 % 1006,8 hPa 0,0 l/m 0 min 0 min 0 W/m 3,2 km/h (1 Bft) 93,18 %
09.12.2022 05:22 1,7 C 1,1 C -0,6 C 93 % 1006,8 hPa 0,0 l/m 0 min 0 min 0 W/m 3,2 km/h (1 Bft) 82,22 %
09.12.2022 05:24 1,7 C 1,1 C -0,6 C 93 % 1006,7 hPa 0,0 l/m 0 min 0 min 0 W/m 3,2 km/h (1 Bft) 51,52 %
09.12.2022 05:26 1,7 C 1,1 C -0,6 C 93 % 1006,7 hPa 0,0 l/m 0 min 0 min 0 W/m 0,0 km/h (0 Bft) 90,00 %
09.12.2022 05:28 1,7 C 1,1 C -0,6 C 93 % 1006,7 hPa 0,0 l/m 0 min 0 min 0 W/m 0,0 km/h (0 Bft) 90,38 %
09.12.2022 05:30 1,7 C 1,1 C -0,6 C 93 % 1006,7 hPa 0,0 l/m 0 min 0 min 0 W/m 0,0 km/h (0 Bft) 91,89 %
09.12.2022 05:32 1,7 C 1,1 C -0,6 C 93 % 1006,6 hPa 0,0 l/m 0 min 0 min 0 W/m 0,0 km/h (0 Bft) 96,15 %
09.12.2022 05:34 1,8 C 1,1 C -0,6 C 93 % 1006,6 hPa 0,0 l/m 0 min 0 min 0 W/m 0,0 km/h (0 Bft) 94,44 %
09.12.2022 05:36 1,8 C 1,1 C -0,6 C 93 % 1006,6 hPa 0,0 l/m 0 min 0 min 0 W/m 0,0 km/h (0 Bft) 95,12 %
09.12.2022 05:38 1,8 C 1,1 C -0,6 C 93 % 1006,6 hPa 0,0 l/m 0 min 0 min 0 W/m 0,0 km/h (0 Bft) 95,92 %
09.12.2022 05:40 1,8 C 1,1 C -0,6 C 93 % 1006,6 hPa 0,0 l/m 0 min 0 min 0 W/m 0,0 km/h (0 Bft) 95,00 %
09.12.2022 05:42 1,8 C 1,1 C -0,6 C 93 % 1006,6 hPa 0,0 l/m 0 min 0 min 0 W/m 0,0 km/h (0 Bft) 94,00 %
09.12.2022 05:44 1,8 C 1,1 C -0,6 C 93 % 1006,7 hPa 0,0 l/m 0 min 0 min 0 W/m 6,4 km/h (2 Bft) 98,04 %
09.12.2022 05:46 1,8 C 1,1 C -0,6 C 93 % 1006,6 hPa 0,0 l/m 0 min 0 min 0 W/m 3,2 km/h (1 Bft) 95,65 %
09.12.2022 05:48 1,8 C 1,1 C -0,6 C 93 % 1006,6 hPa 0,0 l/m 0 min 0 min 0 W/m 0,0 km/h (0 Bft) 97,62 %
09.12.2022 05:50 1,8 C 1,1 C -0,6 C 93 % 1006,6 hPa 0,0 l/m 0 min 0 min 0 W/m 3,2 km/h (1 Bft) 95,74 %
09.12.2022 05:52 1,8 C 1,1 C -0,6 C 93 % 1006,6 hPa 0,0 l/m 0 min 0 min 0 W/m 3,2 km/h (1 Bft) 93,75 %
09.12.2022 05:54 1,8 C 1,1 C -0,6 C 93 % 1006,6 hPa 0,0 l/m 0 min 0 min 0 W/m 0,0 km/h (0 Bft) 98,11 %
09.12.2022 05:56 1,8 C 1,1 C -0,6 C 93 % 1006,5 hPa 0,0 l/m 0 min 0 min 0 W/m 0,0 km/h (0 Bft) 95,45 %
09.12.2022 05:58 1,8 C 1,1 C -0,6 C 93 % 1006,5 hPa 0,0 l/m 0 min 0 min 0 W/m 0,0 km/h (0 Bft) 97,78 %
09.12.2022 06:00 1,8 C 1,1 C -0,6 C 93 % 1006,6 hPa 0,0 l/m 0 min 0 min 0 W/m 0,0 km/h (0 Bft) 97,78 %
09.12.2022 06:02 1,8 C 1,1 C -0,6 C 93 % 1006,6 hPa 0,0 l/m 0 min 0 min 0 W/m 0,0 km/h (0 Bft) 100,00 %
09.12.2022 06:04 1,8 C 1,7 C -0,6 C 93 % 1006,6 hPa 0,0 l/m 0 min 0 min 0 W/m 0,0 km/h (0 Bft) 98,25 %
09.12.2022 06:08 1,8 C 1,7 C -0,6 C 93 % 1006,6 hPa 0,0 l/m 0 min 0 min 0 W/m 0,0 km/h (0 Bft) 97,70 %
09.12.2022 06:10 1,8 C 1,7 C -0,6 C 93 % 1006,7 hPa 0,0 l/m 0 min 0 min 0 W/m 0,0 km/h (0 Bft) 100,00 %
09.12.2022 06:12 1,8 C 1,7 C -0,6 C 93 % 1006,6 hPa 0,0 l/m 0 min 0 min 0 W/m 0,0 km/h (0 Bft) 100,00 %
09.12.2022 06:14 1,8 C 1,7 C -0,6 C 93 % 1006,6 hPa 0,0 l/m 0 min 0 min 0 W/m 0,0 km/h (0 Bft) 100,00 %
09.12.2022 06:16 1,8 C 1,7 C -0,6 C 93 % 1006,6 hPa 0,0 l/m 0 min 0 min 0 W/m 0,0 km/h (0 Bft) 100,00 %
09.12.2022 06:18 1,9 C 1,7 C -0,6 C 93 % 1006,6 hPa 0,0 l/m 0 min 0 min 0 W/m 0,0 km/h (0 Bft) 100,00 %
09.12.2022 06:20 1,9 C 1,7 C -0,6 C 93 % 1006,6 hPa 0,0 l/m 0 min 0 min 0 W/m 0,0 km/h (0 Bft) 97,56 %
09.12.2022 06:22 1,9 C 1,7 C -0,6 C 93 % 1006,6 hPa 0,0 l/m 0 min 0 min 0 W/m 0,0 km/h (0 Bft) 100,00 %
09.12.2022 06:25 1,9 C 1,7 C -0,6 C 93 % 1006,6 hPa 0,0 l/m 0 min 0 min 0 W/m 0,0 km/h (0 Bft) 100,00 %
09.12.2022 06:30 1,9 C 1,1 C -0,6 C 93 % 1006,5 hPa 0,0 l/m 0 min 0 min 0 W/m 0,0 km/h (0 Bft) 100,00 %
09.12.2022 06:32 1,9 C 1,1 C -0,6 C 93 % 1006,5 hPa 0,0 l/m 0 min 0 min 0 W/m 0,0 km/h (0 Bft) 100,00 %
09.12.2022 06:34 1,9 C 1,1 C -0,6 C 93 % 1006,4 hPa 0,0 l/m 0 min 0 min 0 W/m 3,2 km/h (1 Bft) 100,00 %
09.12.2022 06:36 1,9 C 1,1 C -0,6 C 93 % 1006,5 hPa 0,0 l/m 0 min 0 min 0 W/m 6,4 km/h (2 Bft) 97,83 %
09.12.2022 06:38 1,8 C 1,1 C -0,6 C 93 % 1006,4 hPa 0,0 l/m 0 min 0 min 0 W/m 0,0 km/h (0 Bft) 100,00 %
09.12.2022 06:40 1,9 C 1,1 C -0,6 C 93 % 1006,4 hPa 0,0 l/m 0 min 0 min 0 W/m 6,4 km/h (2 Bft) 100,00 %
09.12.2022 06:42 1,8 C 1,1 C -0,6 C 93 % 1006,4 hPa 0,0 l/m 0 min 0 min 0 W/m 3,2 km/h (1 Bft) 100,00 %
09.12.2022 06:44 1,8 C 1,1 C -0,6 C 93 % 1006,5 hPa 0,0 l/m 0 min 0 min 0 W/m 0,0 km/h (0 Bft) 100,00 %
09.12.2022 06:46 1,8 C 1,1 C -0,6 C 93 % 1006,5 hPa 0,0 l/m 0 min 0 min 0 W/m 3,2 km/h (1 Bft) 100,00 %
09.12.2022 06:48 1,8 C 1,1 C -0,6 C 93 % 1006,5 hPa 0,0 l/m 0 min 0 min 0 W/m 0,0 km/h (0 Bft) 97,87 %
09.12.2022 06:50 1,8 C 1,1 C -0,6 C 93 % 1006,5 hPa 0,0 l/m 0 min 0 min 0 W/m 3,2 km/h (1 Bft) 97,87 %
09.12.2022 06:54 1,8 C 1,1 C -0,6 C 93 % 1006,4 hPa 0,0 l/m 0 min 0 min 0 W/m 0,0 km/h (0 Bft) 97,92 %
09.12.2022 06:56 1,8 C 1,1 C -0,6 C 93 % 1006,4 hPa 0,0 l/m 0 min 0 min 0 W/m 0,0 km/h (0 Bft) 100,00 %
09.12.2022 06:58 1,8 C 1,1 C -0,6 C 93 % 1006,4 hPa 0,0 l/m 0 min 0 min 0 W/m 0,0 km/h (0 Bft) 100,00 %
09.12.2022 07:00 1,8 C 1,1 C -0,6 C 93 % 1006,4 hPa 0,0 l/m 0 min 0 min 0 W/m 0,0 km/h (0 Bft) 97,87 %
09.12.2022 07:02 1,8 C 1,1 C -0,6 C 93 % 1006,4 hPa 0,0 l/m 0 min 0 min 0 W/m 0,0 km/h (0 Bft) 95,74 %
09.12.2022 07:04 1,8 C 1,1 C -0,6 C 93 % 1006,4 hPa 0,0 l/m 0 min 0 min 0 W/m 0,0 km/h (0 Bft) 95,74 %
09.12.2022 07:06 1,8 C 1,1 C -0,6 C 93 % 1006,3 hPa 0,0 l/m 0 min 0 min 0 W/m 0,0 km/h (0 Bft) 100,00 %
09.12.2022 07:08 1,8 C 1,1 C -0,6 C 93 % 1006,4 hPa 0,0 l/m 0 min 0 min 0 W/m 0,0 km/h (0 Bft) 97,87 %
09.12.2022 07:10 1,8 C 1,1 C -0,6 C 93 % 1006,4 hPa 0,0 l/m 0 min 0 min 0 W/m 0,0 km/h (0 Bft) 97,87 %
09.12.2022 07:12 1,8 C 1,1 C -0,6 C 93 % 1006,3 hPa 0,0 l/m 0 min 0 min 0 W/m 0,0 km/h (0 Bft) 97,87 %
09.12.2022 07:14 1,8 C 1,1 C -0,6 C 93 % 1006,3 hPa 0,0 l/m 0 min 0 min 0 W/m 3,2 km/h (1 Bft) 97,87 %
09.12.2022 07:16 1,8 C 1,1 C -0,6 C 93 % 1006,3 hPa 0,0 l/m 0 min 0 min 0 W/m 3,2 km/h (1 Bft) 93,62 %
09.12.2022 07:18 1,8 C 1,1 C -0,6 C 93 % 1006,3 hPa 0,0 l/m 0 min 0 min 0 W/m 6,4 km/h (2 Bft) 95,65 %
09.12.2022 07:20 1,8 C 1,1 C -0,6 C 93 % 1006,3 hPa 0,0 l/m 0 min 0 min 0 W/m 0,0 km/h (0 Bft) 95,74 %
09.12.2022 07:22 1,8 C 1,1 C -0,6 C 93 % 1006,3 hPa 0,0 l/m 0 min 0 min 0 W/m 3,2 km/h (1 Bft) 95,74 %
09.12.2022 07:24 1,8 C 1,1 C -0,6 C 93 % 1006,3 hPa 0,0 l/m 0 min 0 min 0 W/m 0,0 km/h (0 Bft) 89,36 %
09.12.2022 07:26 1,8 C 1,1 C -0,6 C 93 % 1006,3 hPa 0,0 l/m 0 min 0 min 0 W/m 0,0 km/h (0 Bft) 95,74 %
09.12.2022 07:28 1,8 C 1,1 C -0,6 C 93 % 1006,3 hPa 0,0 l/m 0 min 0 min 0 W/m 0,0 km/h (0 Bft) 93,62 %
09.12.2022 07:30 1,8 C 1,1 C -0,6 C 93 % 1006,2 hPa 0,0 l/m 0 min 0 min 0 W/m 0,0 km/h (0 Bft) 95,74 %
09.12.2022 07:32 1,8 C 1,1 C -0,6 C 93 % 1006,3 hPa 0,0 l/m 0 min 0 min 0 W/m 0,0 km/h (0 Bft) 91,30 %
09.12.2022 07:34 1,8 C 1,1 C -0,6 C 93 % 1006,3 hPa 0,0 l/m 0 min 0 min 0 W/m 0,0 km/h (0 Bft) 95,74 %
09.12.2022 07:36 1,8 C 1,1 C -0,6 C 93 % 1006,3 hPa 0,0 l/m 0 min 0 min 0 W/m 0,0 km/h (0 Bft) 93,62 %
09.12.2022 07:38 1,8 C 1,1 C -0,6 C 93 % 1006,3 hPa 0,0 l/m 0 min 0 min 0 W/m 0,0 km/h (0 Bft) 93,62 %
09.12.2022 07:40 1,8 C 1,1 C -0,6 C 93 % 1006,3 hPa 0,0 l/m 0 min 0 min 0 W/m 3,2 km/h (1 Bft) 95,74 %
09.12.2022 07:42 1,8 C 1,1 C -0,6 C 93 % 1006,3 hPa 0,0 l/m 0 min 0 min 0 W/m 0,0 km/h (0 Bft) 97,87 %
09.12.2022 07:44 1,8 C 1,1 C -0,6 C 93 % 1006,3 hPa 0,0 l/m 0 min 0 min 0 W/m 0,0 km/h (0 Bft) 97,83 %
09.12.2022 07:46 1,8 C 1,1 C -0,6 C 93 % 1006,2 hPa 0,0 l/m 0 min 0 min 0 W/m 0,0 km/h (0 Bft) 97,87 %
09.12.2022 07:48 1,8 C 1,1 C -0,6 C 93 % 1006,2 hPa 0,0 l/m 0 min 0 min 0 W/m 0,0 km/h (0 Bft) 97,87 %
09.12.2022 07:50 1,8 C 1,1 C -0,6 C 93 % 1006,3 hPa 0,0 l/m 0 min 0 min 0 W/m 0,0 km/h (0 Bft) 95,74 %
09.12.2022 07:52 1,8 C 1,1 C -0,6 C 93 % 1006,2 hPa 0,0 l/m 0 min 0 min 0 W/m 0,0 km/h (0 Bft) 95,74 %
09.12.2022 07:54 1,8 C 1,1 C -0,6 C 93 % 1006,3 hPa 0,0 l/m 0 min 0 min 0 W/m 0,0 km/h (0 Bft) 95,74 %
09.12.2022 07:56 1,8 C 1,1 C -0,6 C 93 % 1006,3 hPa 0,0 l/m 0 min 0 min 0 W/m 0,0 km/h (0 Bft) 100,00 %
09.12.2022 07:58 1,8 C 1,1 C -0,6 C 93 % 1006,3 hPa 0,0 l/m 0 min 0 min 0 W/m 0,0 km/h (0 Bft) 95,65 %
09.12.2022 08:00 1,8 C 1,1 C -0,6 C 93 % 1006,3 hPa 0,0 l/m 0 min 0 min 0 W/m 0,0 km/h (0 Bft) 97,87 %
09.12.2022 08:02 1,8 C 1,1 C -0,6 C 93 % 1006,3 hPa 0,0 l/m 0 min 0 min 0 W/m 3,2 km/h (1 Bft) 95,74 %
09.12.2022 08:04 1,8 C 1,1 C -0,6 C 93 % 1006,3 hPa 0,0 l/m 0 min 0 min 0 W/m 0,0 km/h (0 Bft) 93,75 %
09.12.2022 08:06 1,8 C 1,1 C -0,6 C 93 % 1006,3 hPa 0,0 l/m 0 min 0 min 0 W/m 3,2 km/h (1 Bft) 95,92 %
09.12.2022 08:08 1,8 C 1,1 C -0,6 C 93 % 1006,3 hPa 0,0 l/m 0 min 0 min 0 W/m 0,0 km/h (0 Bft) 97,14 %
09.12.2022 08:10 1,8 C 1,1 C -0,6 C 93 % 1006,3 hPa 0,0 l/m 0 min 0 min 0 W/m 0,0 km/h (0 Bft) 97,87 %
09.12.2022 08:12 1,8 C 1,1 C -0,6 C 93 % 1006,4 hPa 0,0 l/m 0 min 0 min 0 W/m 0,0 km/h (0 Bft) 97,87 %
09.12.2022 08:14 1,8 C 1,1 C -0,6 C 93 % 1006,4 hPa 0,0 l/m 0 min 0 min 0 W/m 3,2 km/h (1 Bft) 97,87 %
09.12.2022 08:16 1,8 C 1,1 C -0,6 C 93 % 1006,5 hPa 0,0 l/m 0 min 0 min 0 W/m 0,0 km/h (0 Bft) 97,83 %
09.12.2022 08:18 1,8 C 1,1 C -0,6 C 93 % 1006,5 hPa 0,0 l/m 0 min 0 min 0 W/m 0,0 km/h (0 Bft) 97,87 %
09.12.2022 08:20 1,8 C 1,1 C -0,6 C 93 % 1006,4 hPa 0,0 l/m 0 min 0 min 0 W/m 0,0 km/h (0 Bft) 97,87 %
09.12.2022 08:22 1,9 C 1,1 C -0,6 C 93 % 1006,5 hPa 0,0 l/m 0 min 0 min 0 W/m 0,0 km/h (0 Bft) 95,74 %
09.12.2022 08:24 1,9 C 1,1 C -0,6 C 93 % 1006,5 hPa 0,0 l/m 0 min 0 min 0 W/m 3,2 km/h (1 Bft) 97,87 %
09.12.2022 08:26 1,9 C 1,7 C -0,6 C 93 % 1006,5 hPa 0,0 l/m 0 min 0 min 0 W/m 0,0 km/h (0 Bft) 97,87 %
09.12.2022 08:28 1,9 C 1,7 C -0,6 C 93 % 1006,5 hPa 0,0 l/m 0 min 0 min 0 W/m 0,0 km/h (0 Bft) 95,74 %
09.12.2022 08:30 1,9 C 1,1 C -0,6 C 93 % 1006,5 hPa 0,0 l/m 0 min 0 min 0 W/m 3,2 km/h (1 Bft) 97,83 %
09.12.2022 08:32 1,9 C 1,1 C -0,6 C 93 % 1006,5 hPa 0,0 l/m 0 min 0 min 0 W/m 3,2 km/h (1 Bft) 97,87 %
09.12.2022 08:34 1,8 C 1,7 C -0,6 C 93 % 1006,5 hPa 0,0 l/m 0 min 0 min 0 W/m 3,2 km/h (1 Bft) 97,87 %
09.12.2022 08:36 1,9 C 1,1 C -0,6 C 93 % 1006,5 hPa 0,0 l/m 0 min 0 min 0 W/m 0,0 km/h (0 Bft) 97,87 %
09.12.2022 08:38 1,8 C 1,7 C -0,6 C 93 % 1006,5 hPa 0,0 l/m 0 min 0 min 0 W/m 3,2 km/h (1 Bft) 97,87 %
09.12.2022 08:40 1,8 C 1,1 C -0,6 C 93 % 1006,5 hPa 0,0 l/m 0 min 0 min 0 W/m 0,0 km/h (0 Bft) 95,74 %
09.12.2022 08:42 1,8 C 1,7 C -0,6 C 93 % 1006,5 hPa 0,0 l/m 0 min 0 min 5 W/m 0,0 km/h (0 Bft) 97,87 %
09.12.2022 08:44 1,8 C 1,7 C -0,6 C 93 % 1006,5 hPa 0,0 l/m 0 min 0 min 5 W/m 0,0 km/h (0 Bft) 97,83 %
09.12.2022 08:46 1,8 C 1,7 C -0,6 C 93 % 1006,6 hPa 0,0 l/m 0 min 0 min 5 W/m 3,2 km/h (1 Bft) 95,74 %
09.12.2022 08:48 1,8 C 1,7 C -0,6 C 93 % 1006,6 hPa 0,0 l/m 0 min 0 min 6 W/m 3,2 km/h (1 Bft) 97,87 %
09.12.2022 08:50 1,8 C 1,7 C -0,6 C 93 % 1006,6 hPa 0,0 l/m 0 min 0 min 7 W/m 3,2 km/h (1 Bft) 97,87 %
09.12.2022 08:52 1,8 C 1,7 C -0,6 C 93 % 1006,6 hPa 0,0 l/m 0 min 0 min 9 W/m 0,0 km/h (0 Bft) 97,87 %
09.12.2022 08:54 1,8 C 1,7 C -0,6 C 93 % 1006,7 hPa 0,0 l/m 0 min 0 min 9 W/m 3,2 km/h (1 Bft) 100,00 %
09.12.2022 08:56 1,9 C 1,7 C -0,6 C 93 % 1006,7 hPa 0,0 l/m 0 min 0 min 10 W/m 3,2 km/h (1 Bft) 97,83 %
09.12.2022 08:58 1,9 C 1,7 C -0,6 C 93 % 1006,7 hPa 0,0 l/m 0 min 0 min 12 W/m 0,0 km/h (0 Bft) 95,74 %
09.12.2022 09:00 1,9 C 1,7 C -0,6 C 93 % 1006,7 hPa 0,0 l/m 0 min 0 min 12 W/m 0,0 km/h (0 Bft) 100,00 %
09.12.2022 09:02 1,9 C 1,7 C -0,6 C 93 % 1006,8 hPa 0,0 l/m 0 min 0 min 12 W/m 0,0 km/h (0 Bft) 95,74 %
09.12.2022 09:04 1,9 C 1,7 C -0,6 C 93 % 1006,8 hPa 0,0 l/m 0 min 0 min 12 W/m 0,0 km/h (0 Bft) 91,67 %
09.12.2022 09:06 1,9 C 1,7 C -0,6 C 93 % 1006,7 hPa 0,0 l/m 0 min 0 min 15 W/m 0,0 km/h (0 Bft) 97,87 %
09.12.2022 09:08 1,9 C 1,7 C -0,6 C 93 % 1006,8 hPa 0,0 l/m 0 min 0 min 17 W/m 0,0 km/h (0 Bft) 95,74 %
09.12.2022 09:10 1,9 C 1,7 C -0,6 C 93 % 1006,8 hPa 0,0 l/m 0 min 0 min 19 W/m 0,0 km/h (0 Bft) 98,08 %
09.12.2022 09:12 1,9 C 1,7 C -0,6 C 93 % 1006,8 hPa 0,0 l/m 0 min 0 min 22 W/m 0,0 km/h (0 Bft) 93,62 %
09.12.2022 09:14 1,9 C 1,7 C -0,6 C 93 % 1006,9 hPa 0,0 l/m 0 min 0 min 24 W/m 0,0 km/h (0 Bft) 94,74 %
09.12.2022 09:16 1,9 C 1,7 C -0,6 C 93 % 1006,9 hPa 0,0 l/m 0 min 0 min 25 W/m 0,0 km/h (0 Bft) 98,00 %
09.12.2022 09:18 1,9 C 1,7 C -0,6 C 92 % 1006,9 hPa 0,0 l/m 0 min 0 min 25 W/m 0,0 km/h (0 Bft) 93,62 %
09.12.2022 09:20 1,9 C 1,7 C -0,6 C 92 % 1006,9 hPa 0,0 l/m 0 min 0 min 26 W/m 0,0 km/h (0 Bft) 95,74 %
09.12.2022 09:22 1,9 C 1,7 C -0,6 C 92 % 1006,8 hPa 0,0 l/m 0 min 0 min 28 W/m 0,0 km/h (0 Bft) 97,83 %
09.12.2022 09:24 1,9 C 1,7 C -0,6 C 92 % 1006,8 hPa 0,0 l/m 0 min 0 min 27 W/m 3,2 km/h (1 Bft) 97,87 %
09.12.2022 09:26 1,9 C 1,7 C -0,6 C 92 % 1006,8 hPa 0,0 l/m 0 min 0 min 25 W/m 3,2 km/h (1 Bft) 97,87 %
09.12.2022 09:28 1,9 C 1,7 C -0,6 C 92 % 1006,8 hPa 0,0 l/m 0 min 0 min 26 W/m 3,2 km/h (1 Bft) 97,87 %
09.12.2022 09:30 1,9 C 1,7 C -0,6 C 91 % 1006,8 hPa 0,0 l/m 0 min 0 min 29 W/m 3,2 km/h (1 Bft) 95,74 %
09.12.2022 09:32 1,9 C 1,7 C -0,6 C 91 % 1006,9 hPa 0,0 l/m 0 min 0 min 35 W/m 0,0 km/h (0 Bft) 97,87 %
09.12.2022 09:34 1,9 C 2,2 C -0,6 C 91 % 1006,9 hPa 0,0 l/m 0 min 0 min 38 W/m 0,0 km/h (0 Bft) 95,74 %
09.12.2022 09:36 2,0 C 2,2 C -0,6 C 91 % 1006,9 hPa 0,0 l/m 0 min 0 min 34 W/m 3,2 km/h (1 Bft) 95,65 %
09.12.2022 09:38 2,0 C 2,2 C -0,6 C 91 % 1006,9 hPa 0,0 l/m 0 min 0 min 32 W/m 0,0 km/h (0 Bft) 97,87 %
09.12.2022 09:40 2,0 C 2,2 C -0,6 C 91 % 1006,9 hPa 0,0 l/m 0 min 0 min 35 W/m 0,0 km/h (0 Bft) 97,87 %
09.12.2022 09:42 2,0 C 2,2 C -0,6 C 91 % 1006,9 hPa 0,0 l/m 0 min 0 min 40 W/m 0,0 km/h (0 Bft) 95,74 %
09.12.2022 09:44 2,1 C 2,2 C -0,6 C 91 % 1006,8 hPa 0,0 l/m 0 min 0 min 42 W/m 0,0 km/h (0 Bft) 95,74 %
09.12.2022 09:46 2,1 C 2,2 C -0,6 C 91 % 1006,8 hPa 0,0 l/m 0 min 0 min 40 W/m 3,2 km/h (1 Bft) 97,87 %
09.12.2022 09:48 2,1 C 2,2 C -0,6 C 90 % 1006,8 hPa 0,0 l/m 0 min 0 min 40 W/m 3,2 km/h (1 Bft) 97,83 %
09.12.2022 09:50 2,1 C 2,2 C -0,6 C 90 % 1006,8 hPa 0,0 l/m 0 min 0 min 42 W/m 0,0 km/h (0 Bft) 95,74 %
09.12.2022 09:52 2,1 C 2,2 C -0,6 C 90 % 1006,8 hPa 0,0 l/m 0 min 0 min 42 W/m 0,0 km/h (0 Bft) 97,87 %
09.12.2022 09:54 2,1 C 2,2 C -0,6 C 90 % 1006,8 hPa 0,0 l/m 0 min 0 min 44 W/m 0,0 km/h (0 Bft) 95,74 %
09.12.2022 09:56 2,1 C 2,2 C -0,6 C 90 % 1006,8 hPa 0,0 l/m 0 min 0 min 49 W/m 0,0 km/h (0 Bft) 97,87 %
09.12.2022 09:58 2,1 C 2,2 C 0,0 C 90 % 1006,8 hPa 0,0 l/m 0 min 0 min 60 W/m 0,0 km/h (0 Bft) 97,87 %
09.12.2022 10:00 2,2 C 2,2 C 0,0 C 90 % 1006,7 hPa 0,0 l/m 0 min 0 min 62 W/m 0,0 km/h (0 Bft) 95,74 %
09.12.2022 10:02 2,2 C 2,2 C 0,0 C 90 % 1006,8 hPa 0,0 l/m 0 min 0 min 54 W/m 0,0 km/h (0 Bft) 95,65 %
09.12.2022 10:04 2,2 C 2,2 C 0,0 C 90 % 1006,8 hPa 0,0 l/m 0 min 0 min 48 W/m 0,0 km/h (0 Bft) 97,87 %
09.12.2022 10:06 2,2 C 2,2 C 0,0 C 90 % 1006,8 hPa 0,0 l/m 0 min 0 min 47 W/m 3,2 km/h (1 Bft) 97,87 %
09.12.2022 10:08 2,2 C 2,2 C 0,0 C 90 % 1006,8 hPa 0,0 l/m 0 min 0 min 48 W/m 3,2 km/h (1 Bft) 97,87 %
09.12.2022 10:10 2,3 C 2,2 C 0,0 C 90 % 1006,8 hPa 0,0 l/m 0 min 0 min 51 W/m 0,0 km/h (0 Bft) 97,87 %
09.12.2022 10:12 2,3 C 2,2 C 0,0 C 90 % 1006,8 hPa 0,0 l/m 0 min 0 min 56 W/m 0,0 km/h (0 Bft) 95,45 %
09.12.2022 10:14 2,3 C 2,2 C 0,0 C 90 % 1006,8 hPa 0,0 l/m 0 min 0 min 58 W/m 0,0 km/h (0 Bft) 95,65 %
09.12.2022 10:16 2,3 C 2,2 C 0,0 C 89 % 1006,8 hPa 0,0 l/m 0 min 0 min 54 W/m 0,0 km/h (0 Bft) 100,00 %
09.12.2022 10:18 2,3 C 2,2 C 0,0 C 89 % 1006,8 hPa 0,0 l/m 0 min 0 min 51 W/m 0,0 km/h (0 Bft) 95,74 %
09.12.2022 10:20 2,3 C 2,2 C 0,0 C 89 % 1006,9 hPa 0,0 l/m 0 min 0 min 52 W/m 3,2 km/h (1 Bft) 100,00 %
09.12.2022 10:22 2,3 C 2,2 C 0,0 C 89 % 1006,9 hPa 0,0 l/m 0 min 0 min 55 W/m 3,2 km/h (1 Bft) 100,00 %
09.12.2022 10:24 2,3 C 2,2 C 0,0 C 89 % 1006,9 hPa 0,0 l/m 0 min 0 min 54 W/m 0,0 km/h (0 Bft) 100,00 %
09.12.2022 10:26 2,3 C 2,2 C 0,0 C 89 % 1006,9 hPa 0,0 l/m 0 min 0 min 54 W/m 0,0 km/h (0 Bft) 100,00 %
09.12.2022 10:28 2,3 C 2,2 C 0,0 C 89 % 1007,0 hPa 0,0 l/m 0 min 0 min 57 W/m 3,2 km/h (1 Bft) 100,00 %
09.12.2022 10:30 2,3 C 2,2 C 0,0 C 89 % 1006,9 hPa 0,0 l/m 0 min 0 min 56 W/m 0,0 km/h (0 Bft) 100,00 %
09.12.2022 10:32 2,4 C 2,2 C 0,0 C 89 % 1007,0 hPa 0,0 l/m 0 min 0 min 50 W/m 0,0 km/h (0 Bft) 100,00 %
09.12.2022 10:34 2,4 C 2,8 C 0,0 C 88 % 1006,9 hPa 0,0 l/m 0 min 0 min 47 W/m 0,0 km/h (0 Bft) 100,00 %
09.12.2022 10:36 2,4 C 2,8 C 0,0 C 88 % 1007,0 hPa 0,0 l/m 0 min 0 min 50 W/m 0,0 km/h (0 Bft) 100,00 %
09.12.2022 10:38 2,4 C 2,2 C 0,0 C 88 % 1007,0 hPa 0,0 l/m 0 min 0 min 55 W/m 0,0 km/h (0 Bft) 100,00 %
09.12.2022 10:40 2,4 C 2,2 C 0,0 C 88 % 1007,0 hPa 0,0 l/m 0 min 0 min 57 W/m 0,0 km/h (0 Bft) 97,83 %
09.12.2022 10:42 2,4 C 2,8 C 0,0 C 88 % 1007,0 hPa 0,0 l/m 0 min 0 min 55 W/m 0,0 km/h (0 Bft) 100,00 %
09.12.2022 10:44 2,4 C 2,8 C 0,0 C 88 % 1007,0 hPa 0,0 l/m 0 min 0 min 52 W/m 0,0 km/h (0 Bft) 100,00 %
09.12.2022 10:46 2,4 C 2,8 C 0,0 C 88 % 1007,0 hPa 0,0 l/m 0 min 0 min 51 W/m 0,0 km/h (0 Bft) 100,00 %
09.12.2022 10:48 2,4 C 2,8 C 0,0 C 88 % 1007,0 hPa 0,0 l/m 0 min 0 min 51 W/m 0,0 km/h (0 Bft) 97,87 %
09.12.2022 10:50 2,4 C 2,8 C 0,0 C 88 % 1006,9 hPa 0,0 l/m 0 min 0 min 50 W/m 0,0 km/h (0 Bft) 97,87 %
09.12.2022 10:52 2,4 C 2,8 C 0,0 C 88 % 1006,9 hPa 0,0 l/m 0 min 0 min 47 W/m 0,0 km/h (0 Bft) 100,00 %
09.12.2022 10:54 2,4 C 2,8 C 0,0 C 87 % 1007,0 hPa 0,0 l/m 0 min 0 min 47 W/m 3,2 km/h (1 Bft) 95,74 %
09.12.2022 10:56 2,4 C 2,8 C 0,0 C 87 % 1006,9 hPa 0,0 l/m 0 min 0 min 49 W/m 3,2 km/h (1 Bft) 97,87 %
09.12.2022 10:58 2,4 C 2,8 C 0,0 C 87 % 1007,0 hPa 0,0 l/m 0 min 0 min 53 W/m 3,2 km/h (1 Bft) 97,87 %
09.12.2022 11:00 2,5 C 2,8 C 0,0 C 87 % 1006,9 hPa 0,0 l/m 0 min 0 min 56 W/m 0,0 km/h (0 Bft) 97,87 %
09.12.2022 11:02 2,5 C 2,8 C 0,0 C 87 % 1006,9 hPa 0,0 l/m 0 min 0 min 58 W/m 0,0 km/h (0 Bft) 97,87 %
09.12.2022 11:04 2,5 C 2,8 C 0,0 C 87 % 1006,9 hPa 0,0 l/m 0 min 0 min 62 W/m 0,0 km/h (0 Bft) 95,74 %
09.12.2022 11:06 2,5 C 2,8 C 0,0 C 87 % 1006,9 hPa 0,0 l/m 0 min 0 min 66 W/m 0,0 km/h (0 Bft) 93,48 %
09.12.2022 11:08 2,6 C 2,8 C 0,0 C 87 % 1006,9 hPa 0,0 l/m 0 min 0 min 66 W/m 0,0 km/h (0 Bft) 95,74 %
09.12.2022 11:10 2,6 C 2,8 C 0,0 C 87 % 1006,9 hPa 0,0 l/m 0 min 0 min 69 W/m 0,0 km/h (0 Bft) 95,74 %
09.12.2022 11:12 2,6 C 2,8 C 0,0 C 87 % 1006,9 hPa 0,0 l/m 0 min 0 min 70 W/m 3,2 km/h (1 Bft) 95,74 %
09.12.2022 11:14 2,6 C 2,8 C 0,0 C 87 % 1006,9 hPa 0,0 l/m 0 min 0 min 67 W/m 0,0 km/h (0 Bft) 93,62 %
09.12.2022 11:16 2,6 C 2,8 C 0,0 C 86 % 1006,9 hPa 0,0 l/m 0 min 0 min 63 W/m 0,0 km/h (0 Bft) 93,62 %
09.12.2022 11:18 2,6 C 2,8 C 0,0 C 86 % 1006,9 hPa 0,0 l/m 0 min 0 min 67 W/m 0,0 km/h (0 Bft) 95,65 %
09.12.2022 11:20 2,6 C 2,8 C 0,0 C 86 % 1006,9 hPa 0,0 l/m 0 min 0 min 75 W/m 0,0 km/h (0 Bft) 95,74 %
09.12.2022 11:22 2,6 C 2,8 C 0,0 C 86 % 1006,8 hPa 0,0 l/m 0 min 0 min 78 W/m 0,0 km/h (0 Bft) 95,74 %
09.12.2022 11:24 2,6 C 2,8 C 0,0 C 86 % 1006,8 hPa 0,0 l/m 0 min 0 min 79 W/m 0,0 km/h (0 Bft) 95,74 %
09.12.2022 11:26 2,7 C 3,3 C 0,0 C 86 % 1006,8 hPa 0,0 l/m 0 min 0 min 84 W/m 0,0 km/h (0 Bft) 95,74 %
09.12.2022 11:28 2,7 C 3,3 C 0,0 C 86 % 1006,8 hPa 0,0 l/m 0 min 0 min 82 W/m 0,0 km/h (0 Bft) 97,87 %
09.12.2022 11:30 2,7 C 3,3 C 0,0 C 86 % 1006,8 hPa 0,0 l/m 0 min 0 min 81 W/m 0,0 km/h (0 Bft) 97,87 %
09.12.2022 11:32 2,7 C 3,3 C 0,0 C 86 % 1006,8 hPa 0,0 l/m 0 min 0 min 83 W/m 3,2 km/h (1 Bft) 93,48 %
09.12.2022 11:34 2,7 C 3,3 C 0,6 C 86 % 1006,7 hPa 0,0 l/m 0 min 0 min 88 W/m 0,0 km/h (0 Bft) 97,87 %
09.12.2022 11:36 2,8 C 2,8 C 0,6 C 86 % 1006,7 hPa 0,0 l/m 0 min 0 min 93 W/m 0,0 km/h (0 Bft) 95,74 %
09.12.2022 11:38 2,8 C 3,3 C 0,6 C 86 % 1006,7 hPa 0,0 l/m 0 min 0 min 95 W/m 3,2 km/h (1 Bft) 97,87 %
09.12.2022 11:40 2,8 C 3,3 C 0,6 C 86 % 1006,7 hPa 0,0 l/m 0 min 0 min 100 W/m 0,0 km/h (0 Bft) 97,87 %
09.12.2022 11:42 2,8 C 3,3 C 0,6 C 86 % 1006,7 hPa 0,0 l/m 0 min 0 min 100 W/m 3,2 km/h (1 Bft) 97,87 %
09.12.2022 11:44 2,8 C 3,3 C 0,6 C 85 % 1006,7 hPa 0,0 l/m 0 min 0 min 107 W/m 0,0 km/h (0 Bft) 97,83 %
09.12.2022 11:46 2,8 C 3,3 C 0,6 C 85 % 1006,7 hPa 0,0 l/m 0 min 0 min 114 W/m 3,2 km/h (1 Bft) 95,74 %
09.12.2022 11:48 2,8 C 3,3 C 0,6 C 85 % 1006,6 hPa 0,0 l/m 0 min 0 min 117 W/m 0,0 km/h (0 Bft) 97,87 %
09.12.2022 11:50 2,9 C 3,3 C 0,6 C 85 % 1006,7 hPa 0,0 l/m 0 min 0 min 120 W/m 0,0 km/h (0 Bft) 97,87 %
09.12.2022 11:52 2,9 C 3,9 C 0,6 C 85 % 1006,6 hPa 0,0 l/m 0 min 0 min 123 W/m 0,0 km/h (0 Bft) 100,00 %
09.12.2022 11:54 2,9 C 3,9 C 0,6 C 85 % 1006,7 hPa 0,0 l/m 0 min 0 min 126 W/m 0,0 km/h (0 Bft) 100,00 %
09.12.2022 11:56 3,0 C 3,9 C 0,6 C 85 % 1006,6 hPa 0,0 l/m 0 min 0 min 126 W/m 0,0 km/h (0 Bft) 100,00 %
09.12.2022 11:58 3,1 C 4,4 C 0,6 C 85 % 1006,6 hPa 0,0 l/m 0 min 0 min 133 W/m 0,0 km/h (0 Bft) 97,83 %
09.12.2022 12:00 3,1 C 4,4 C 0,6 C 85 % 1006,5 hPa 0,0 l/m 0 min 0 min 149 W/m 3,2 km/h (1 Bft) 97,87 %
09.12.2022 12:02 3,1 C 5,0 C 0,6 C 85 % 1006,5 hPa 0,0 l/m 2 min 0 min 198 W/m 3,2 km/h (1 Bft) 100,00 %
09.12.2022 12:04 3,2 C 5,0 C 0,6 C 85 % 1006,6 hPa 0,0 l/m 0 min 0 min 144 W/m 3,2 km/h (1 Bft) 97,87 %
09.12.2022 12:08 3,2 C 4,4 C 0,6 C 84 % 1006,5 hPa 0,0 l/m 0 min 0 min 127 W/m 6,4 km/h (2 Bft) 96,81 %
09.12.2022 12:10 3,2 C 4,4 C 0,6 C 84 % 1006,5 hPa 0,0 l/m 0 min 0 min 134 W/m 3,2 km/h (1 Bft) 97,87 %
09.12.2022 12:12 3,2 C 5,0 C 0,6 C 84 % 1006,5 hPa 0,0 l/m 0 min 0 min 137 W/m 9,7 km/h (2 Bft) 100,00 %
09.12.2022 12:14 3,2 C 5,0 C 0,6 C 84 % 1006,5 hPa 0,0 l/m 0 min 0 min 126 W/m 6,4 km/h (2 Bft) 97,87 %
09.12.2022 12:16 3,3 C 5,0 C 0,6 C 84 % 1006,5 hPa 0,0 l/m 0 min 0 min 111 W/m 0,0 km/h (0 Bft) 100,00 %
09.12.2022 12:18 3,3 C 4,4 C 0,6 C 83 % 1006,5 hPa 0,0 l/m 0 min 0 min 110 W/m 3,2 km/h (1 Bft) 100,00 %
09.12.2022 12:20 3,3 C 4,4 C 0,6 C 83 % 1006,4 hPa 0,0 l/m 0 min 0 min 118 W/m 3,2 km/h (1 Bft) 100,00 %
09.12.2022 12:22 3,3 C 4,4 C 0,6 C 83 % 1006,5 hPa 0,0 l/m 0 min 0 min 129 W/m 3,2 km/h (1 Bft) 97,87 %
09.12.2022 12:24 3,3 C 4,4 C 0,6 C 83 % 1006,5 hPa 0,0 l/m 0 min 0 min 140 W/m 3,2 km/h (1 Bft) 95,65 %
09.12.2022 12:26 3,4 C 4,4 C 0,6 C 83 % 1006,5 hPa 0,0 l/m 0 min 0 min 146 W/m 0,0 km/h (0 Bft) 93,62 %
09.12.2022 12:28 3,4 C 4,4 C 0,6 C 83 % 1006,5 hPa 0,0 l/m 0 min 0 min 148 W/m 0,0 km/h (0 Bft) 34,29 %
09.12.2022 12:30 3,4 C 4,4 C 0,6 C 83 % 1006,5 hPa 0,0 l/m 0 min 0 min 144 W/m 6,4 km/h (2 Bft) 97,87 %
09.12.2022 12:32 3,4 C 4,4 C 0,6 C 83 % 1006,5 hPa 0,0 l/m 0 min 0 min 142 W/m 3,2 km/h (1 Bft) 97,87 %
09.12.2022 12:34 3,4 C 4,4 C 0,6 C 83 % 1006,4 hPa 0,0 l/m 0 min 0 min 142 W/m 3,2 km/h (1 Bft) 95,74 %
09.12.2022 12:36 3,4 C 3,9 C 0,6 C 82 % 1006,4 hPa 0,0 l/m 0 min 0 min 140 W/m 6,4 km/h (2 Bft) 97,87 %
09.12.2022 12:38 3,4 C 3,9 C 0,6 C 82 % 1006,4 hPa 0,0 l/m 0 min 0 min 134 W/m 6,4 km/h (2 Bft) 100,00 %
09.12.2022 12:40 3,4 C 4,4 C 0,6 C 83 % 1006,4 hPa 0,0 l/m 0 min 0 min 129 W/m 3,2 km/h (1 Bft) 100,00 %
09.12.2022 12:45 3,4 C 3,9 C 0,6 C 82 % 1006,3 hPa 0,0 l/m 0 min 0 min 119 W/m 3,2 km/h (1 Bft) 96,61 %
09.12.2022 12:46 3,4 C 3,9 C 0,6 C 82 % 1006,3 hPa 0,0 l/m 0 min 0 min 116 W/m 0,0 km/h (0 Bft) 100,00 %
09.12.2022 12:48 3,4 C 3,9 C 0,6 C 82 % 1006,4 hPa 0,0 l/m 0 min 0 min 110 W/m 9,7 km/h (2 Bft) 97,87 %
09.12.2022 12:50 3,4 C 3,9 C 0,6 C 82 % 1006,3 hPa 0,0 l/m 0 min 0 min 104 W/m 6,4 km/h (2 Bft) 97,83 %
09.12.2022 12:52 3,4 C 3,9 C 0,6 C 82 % 1006,3 hPa 0,0 l/m 0 min 0 min 102 W/m 0,0 km/h (0 Bft) 97,87 %
09.12.2022 12:54 3,4 C 3,9 C 0,6 C 82 % 1006,3 hPa 0,0 l/m 0 min 0 min 102 W/m 3,2 km/h (1 Bft) 95,74 %
09.12.2022 12:56 3,4 C 3,9 C 0,6 C 82 % 1006,3 hPa 0,0 l/m 0 min 0 min 108 W/m 6,4 km/h (2 Bft) 97,87 %
09.12.2022 12:58 3,4 C 4,4 C 0,6 C 82 % 1006,3 hPa 0,0 l/m 0 min 0 min 117 W/m 3,2 km/h (1 Bft) 93,62 %
09.12.2022 13:00 3,4 C 3,9 C 0,6 C 82 % 1006,3 hPa 0,0 l/m 0 min 0 min 129 W/m 3,2 km/h (1 Bft) 95,74 %
09.12.2022 13:02 3,5 C 4,4 C 0,6 C 82 % 1006,2 hPa 0,0 l/m 0 min 0 min 134 W/m 0,0 km/h (0 Bft) 95,65 %
09.12.2022 13:04 3,5 C 4,4 C 0,6 C 82 % 1006,2 hPa 0,0 l/m 0 min 0 min 135 W/m 3,2 km/h (1 Bft) 95,74 %
09.12.2022 13:06 3,6 C 4,4 C 0,6 C 82 % 1006,2 hPa 0,0 l/m 0 min 0 min 126 W/m 0,0 km/h (0 Bft) 95,74 %
09.12.2022 13:08 3,7 C 4,4 C 0,6 C 82 % 1006,2 hPa 0,0 l/m 0 min 0 min 115 W/m 3,2 km/h (1 Bft) 95,74 %
09.12.2022 13:10 3,7 C 4,4 C 0,6 C 82 % 1006,3 hPa 0,0 l/m 0 min 0 min 125 W/m 3,2 km/h (1 Bft) 97,87 %
09.12.2022 13:12 3,8 C 4,4 C 0,6 C 82 % 1006,2 hPa 0,0 l/m 0 min 0 min 142 W/m 3,2 km/h (1 Bft) 97,87 %
09.12.2022 13:14 3,9 C 5,6 C 0,6 C 82 % 1006,2 hPa 0,0 l/m 2 min 0 min 229 W/m 3,2 km/h (1 Bft) 97,87 %
09.12.2022 13:16 4,0 C 6,7 C 1,1 C 82 % 1006,2 hPa 0,0 l/m 2 min 0 min 256 W/m 3,2 km/h (1 Bft) 95,65 %
09.12.2022 13:18 4,1 C 6,7 C 0,6 C 82 % 1006,2 hPa 0,0 l/m 2 min 0 min 204 W/m 9,7 km/h (2 Bft) 97,87 %
09.12.2022 13:20 4,1 C 6,1 C 0,6 C 81 % 1006,2 hPa 0,0 l/m 0 min 0 min 144 W/m 3,2 km/h (1 Bft) 97,87 %
09.12.2022 13:22 4,1 C 5,6 C 1,1 C 81 % 1006,2 hPa 0,0 l/m 0 min 0 min 144 W/m 0,0 km/h (0 Bft) 91,49 %
09.12.2022 13:24 4,1 C 5,0 C 0,6 C 81 % 1006,1 hPa 0,0 l/m 0 min 0 min 137 W/m 0,0 km/h (0 Bft) 97,87 %
09.12.2022 13:26 4,1 C 5,0 C 0,6 C 81 % 1006,2 hPa 0,0 l/m 0 min 0 min 129 W/m 0,0 km/h (0 Bft) 97,87 %
09.12.2022 13:28 4,1 C 5,0 C 1,1 C 81 % 1006,2 hPa 0,0 l/m 0 min 0 min 121 W/m 0,0 km/h (0 Bft) 97,83 %
09.12.2022 13:30 4,2 C 5,0 C 1,1 C 80 % 1006,1 hPa 0,0 l/m 0 min 0 min 115 W/m 0,0 km/h (0 Bft) 97,87 %
09.12.2022 13:32 4,2 C 5,0 C 0,6 C 80 % 1006,1 hPa 0,0 l/m 0 min 0 min 110 W/m 0,0 km/h (0 Bft) 95,74 %
09.12.2022 13:34 4,1 C 4,4 C 0,6 C 80 % 1006,1 hPa 0,0 l/m 0 min 0 min 103 W/m 0,0 km/h (0 Bft) 93,62 %
09.12.2022 13:36 4,1 C 4,4 C 0,6 C 80 % 1006,2 hPa 0,0 l/m 0 min 0 min 97 W/m 0,0 km/h (0 Bft) 97,87 %
09.12.2022 13:38 4,1 C 4,4 C 0,6 C 79 % 1006,2 hPa 0,0 l/m 0 min 0 min 97 W/m 0,0 km/h (0 Bft) 95,74 %
09.12.2022 13:40 4,1 C 4,4 C 0,6 C 80 % 1006,2 hPa 0,0 l/m 0 min 0 min 125 W/m 0,0 km/h (0 Bft) 95,65 %
09.12.2022 13:42 4,1 C 5,0 C 0,6 C 80 % 1006,2 hPa 0,0 l/m 2 min 0 min 200 W/m 0,0 km/h (0 Bft) 97,87 %
09.12.2022 13:44 4,1 C 6,1 C 1,7 C 80 % 1006,2 hPa 0,2 l/m 2 min 0 min 167 W/m 0,0 km/h (0 Bft) 97,87 %
09.12.2022 13:46 4,2 C 6,1 C 1,1 C 80 % 1006,1 hPa 0,0 l/m 2 min 0 min 168 W/m 0,0 km/h (0 Bft) 95,74 %
09.12.2022 13:48 4,2 C 5,6 C 1,1 C 80 % 1006,1 hPa 0,0 l/m 0 min 0 min 129 W/m 0,0 km/h (0 Bft) 97,87 %
09.12.2022 13:50 4,2 C 5,0 C 0,6 C 80 % 1006,1 hPa 0,0 l/m 0 min 0 min 81 W/m 0,0 km/h (0 Bft) 95,74 %
09.12.2022 13:52 4,2 C 5,0 C 0,6 C 80 % 1006,1 hPa 0,0 l/m 0 min 0 min 67 W/m 0,0 km/h (0 Bft) 95,65 %
09.12.2022 13:54 4,2 C 3,9 C 0,6 C 79 % 1006,1 hPa 0,0 l/m 0 min 0 min 67 W/m 0,0 km/h (0 Bft) 97,87 %
09.12.2022 13:56 4,1 C 3,9 C 0,0 C 79 % 1006,0 hPa 0,0 l/m 0 min 0 min 66 W/m 0,0 km/h (0 Bft) 97,87 %
09.12.2022 13:58 4,0 C 3,9 C 0,0 C 79 % 1006,0 hPa 0,0 l/m 0 min 0 min 61 W/m 0,0 km/h (0 Bft) 95,74 %
09.12.2022 14:00 3,9 C 3,3 C 0,0 C 79 % 1006,0 hPa 0,0 l/m 0 min 0 min 60 W/m 0,0 km/h (0 Bft) 95,74 %
09.12.2022 14:02 3,9 C 3,3 C 0,0 C 79 % 1006,0 hPa 0,0 l/m 0 min 0 min 62 W/m 0,0 km/h (0 Bft) 97,87 %
09.12.2022 14:04 3,9 C 3,3 C 0,0 C 79 % 1006,0 hPa 0,0 l/m 0 min 0 min 59 W/m 0,0 km/h (0 Bft) 95,74 %
09.12.2022 14:06 3,8 C 3,3 C 0,0 C 79 % 1005,9 hPa 0,0 l/m 0 min 0 min 54 W/m 0,0 km/h (0 Bft) 97,83 %
09.12.2022 14:08 3,8 C 3,3 C -0,6 C 79 % 1006,0 hPa 0,0 l/m 0 min 0 min 60 W/m 0,0 km/h (0 Bft) 95,74 %
09.12.2022 14:10 3,8 C 3,3 C 0,0 C 79 % 1005,9 hPa 0,0 l/m 0 min 0 min 112 W/m 0,0 km/h (0 Bft) 95,74 %
09.12.2022 14:12 3,8 C 3,3 C -0,6 C 80 % 1006,0 hPa 0,0 l/m 0 min 0 min 69 W/m 0,0 km/h (0 Bft) 97,87 %
09.12.2022 14:14 3,8 C 3,3 C -0,6 C 80 % 1005,9 hPa 0,0 l/m 0 min 0 min 53 W/m 0,0 km/h (0 Bft) 93,62 %
09.12.2022 14:16 3,8 C 3,3 C -0,6 C 80 % 1005,9 hPa 0,0 l/m 0 min 0 min 56 W/m 0,0 km/h (0 Bft) 95,74 %
09.12.2022 14:18 3,8 C 3,3 C -0,6 C 80 % 1005,9 hPa 0,0 l/m 0 min 0 min 95 W/m 0,0 km/h (0 Bft) 97,87 %
09.12.2022 14:20 3,8 C 3,9 C -0,6 C 80 % 1006,0 hPa 0,0 l/m 2 min 0 min 137 W/m 0,0 km/h (0 Bft) 97,83 %
09.12.2022 14:22 3,8 C 4,4 C -0,6 C 80 % 1006,0 hPa 0,0 l/m 2 min 0 min 141 W/m 0,0 km/h (0 Bft) 95,74 %
09.12.2022 14:24 3,8 C 5,0 C -0,6 C 80 % 1006,0 hPa 0,0 l/m 2 min 0 min 146 W/m 0,0 km/h (0 Bft) 95,74 %
09.12.2022 14:26 3,8 C 5,0 C -0,6 C 80 % 1006,0 hPa 0,0 l/m 2 min 0 min 148 W/m 0,0 km/h (0 Bft) 95,74 %
09.12.2022 14:28 3,8 C 5,0 C -0,6 C 80 % 1006,0 hPa 0,0 l/m 2 min 0 min 124 W/m 0,0 km/h (0 Bft) 93,62 %
09.12.2022 14:30 3,8 C 4,4 C -0,6 C 80 % 1006,0 hPa 0,0 l/m 2 min 0 min 114 W/m 0,0 km/h (0 Bft) 97,87 %
09.12.2022 14:32 3,8 C 4,4 C -0,6 C 80 % 1005,9 hPa 0,0 l/m 0 min 0 min 105 W/m 0,0 km/h (0 Bft) 97,83 %
09.12.2022 14:34 3,8 C 4,4 C -0,6 C 80 % 1005,9 hPa 0,0 l/m 0 min 0 min 83 W/m 0,0 km/h (0 Bft) 97,87 %
09.12.2022 14:36 3,9 C 3,9 C -0,6 C 80 % 1005,9 hPa 0,0 l/m 0 min 0 min 99 W/m 0,0 km/h (0 Bft) 100,00 %
09.12.2022 14:38 3,9 C 3,9 C -0,6 C 80 % 1005,9 hPa 0,0 l/m 0 min 0 min 93 W/m 0,0 km/h (0 Bft) 100,00 %
09.12.2022 14:40 3,9 C 3,9 C -0,6 C 80 % 1005,9 hPa 0,0 l/m 0 min 0 min 80 W/m 0,0 km/h (0 Bft) 97,87 %
09.12.2022 14:42 3,9 C 3,9 C -0,6 C 80 % 1005,9 hPa 0,0 l/m 0 min 0 min 68 W/m 0,0 km/h (0 Bft) 100,00 %
09.12.2022 14:44 3,9 C 3,3 C -0,6 C 80 % 1006,0 hPa 0,0 l/m 0 min 0 min 95 W/m 0,0 km/h (0 Bft) 100,00 %
09.12.2022 14:46 3,9 C 3,3 C -0,6 C 80 % 1005,9 hPa 0,0 l/m 2 min 0 min 105 W/m 0,0 km/h (0 Bft) 100,00 %
09.12.2022 14:48 3,9 C 3,3 C 0,0 C 80 % 1006,0 hPa 0,0 l/m 2 min 0 min 110 W/m 0,0 km/h (0 Bft) 97,87 %
09.12.2022 14:50 3,8 C 3,3 C 0,0 C 80 % 1006,0 hPa 0,0 l/m 0 min 0 min 91 W/m 0,0 km/h (0 Bft) 95,74 %
09.12.2022 14:52 3,8 C 3,3 C 0,0 C 80 % 1006,0 hPa 0,0 l/m 2 min 0 min 106 W/m 0,0 km/h (0 Bft) 100,00 %
09.12.2022 14:54 3,8 C 3,3 C 0,0 C 80 % 1006,0 hPa 0,0 l/m 2 min 0 min 109 W/m 0,0 km/h (0 Bft) 100,00 %
09.12.2022 14:56 3,8 C 3,3 C 0,0 C 80 % 1006,0 hPa 0,0 l/m 0 min 0 min 83 W/m 0,0 km/h (0 Bft) 100,00 %
09.12.2022 14:58 3,8 C 3,3 C 0,0 C 80 % 1005,9 hPa 0,0 l/m 0 min 0 min 83 W/m 0,0 km/h (0 Bft) 100,00 %
09.12.2022 15:00 3,7 C 3,3 C 0,0 C 80 % 1005,9 hPa 0,0 l/m 2 min 0 min 99 W/m 0,0 km/h (0 Bft) 97,87 %
09.12.2022 15:02 3,7 C 3,3 C 0,0 C 80 % 1006,0 hPa 0,0 l/m 2 min 0 min 104 W/m 0,0 km/h (0 Bft) 97,87 %
09.12.2022 15:04 3,8 C 3,9 C 0,0 C 80 % 1006,0 hPa 0,0 l/m 2 min 0 min 126 W/m 0,0 km/h (0 Bft) 100,00 %
09.12.2022 15:06 3,8 C 3,9 C 0,0 C 81 % 1005,9 hPa 0,0 l/m 2 min 0 min 127 W/m 0,0 km/h (0 Bft) 100,00 %
09.12.2022 15:08 3,8 C 3,9 C 0,0 C 81 % 1006,0 hPa 0,0 l/m 2 min 0 min 126 W/m 0,0 km/h (0 Bft) 97,87 %
09.12.2022 15:10 3,8 C 3,9 C 0,0 C 81 % 1005,9 hPa 0,0 l/m 2 min 0 min 108 W/m 0,0 km/h (0 Bft) 97,83 %
09.12.2022 15:12 3,8 C 3,9 C 0,0 C 81 % 1005,9 hPa 0,0 l/m 2 min 0 min 90 W/m 6,4 km/h (2 Bft) 95,74 %
09.12.2022 15:14 3,8 C 3,9 C 0,0 C 81 % 1005,9 hPa 0,0 l/m 2 min 0 min 76 W/m 3,2 km/h (1 Bft) 93,62 %
09.12.2022 15:16 3,8 C 3,9 C 0,0 C 81 % 1005,9 hPa 0,0 l/m 0 min 0 min 69 W/m 3,2 km/h (1 Bft) 97,87 %
09.12.2022 15:18 3,8 C 3,9 C 0,0 C 81 % 1006,0 hPa 0,0 l/m 0 min 0 min 61 W/m 3,2 km/h (1 Bft) 97,87 %
09.12.2022 15:20 3,7 C 3,3 C 0,0 C 81 % 1005,9 hPa 0,0 l/m 0 min 0 min 55 W/m 3,2 km/h (1 Bft) 97,56 %
09.12.2022 15:22 3,7 C 3,3 C 0,0 C 81 % 1006,0 hPa 0,0 l/m 0 min 0 min 53 W/m 0,0 km/h (0 Bft) 98,08 %
09.12.2022 15:24 3,7 C 3,3 C 0,0 C 81 % 1006,0 hPa 0,0 l/m 0 min 0 min 49 W/m 0,0 km/h (0 Bft) 95,74 %
09.12.2022 15:26 3,7 C 3,3 C 0,0 C 81 % 1006,0 hPa 0,0 l/m 0 min 0 min 42 W/m 0,0 km/h (0 Bft) 97,83 %
09.12.2022 15:28 3,6 C 3,3 C 0,0 C 81 % 1006,1 hPa 0,0 l/m 0 min 0 min 37 W/m 0,0 km/h (0 Bft) 95,74 %
09.12.2022 15:30 3,6 C 3,3 C 0,0 C 81 % 1006,1 hPa 0,0 l/m 0 min 0 min 33 W/m 0,0 km/h (0 Bft) 95,74 %
09.12.2022 15:32 3,6 C 3,3 C 0,0 C 82 % 1006,1 hPa 0,0 l/m 0 min 0 min 32 W/m 0,0 km/h (0 Bft) 95,74 %
09.12.2022 15:34 3,6 C 2,8 C 0,0 C 82 % 1006,1 hPa 0,0 l/m 0 min 0 min 30 W/m 0,0 km/h (0 Bft) 95,74 %
09.12.2022 15:36 3,5 C 2,8 C 0,0 C 82 % 1006,1 hPa 0,0 l/m 0 min 0 min 29 W/m 0,0 km/h (0 Bft) 95,74 %
09.12.2022 15:38 3,4 C 2,8 C 0,0 C 82 % 1006,1 hPa 0,0 l/m 0 min 0 min 27 W/m 0,0 km/h (0 Bft) 95,65 %
09.12.2022 15:40 3,4 C 2,8 C 0,0 C 82 % 1006,1 hPa 0,0 l/m 0 min 0 min 26 W/m 0,0 km/h (0 Bft) 95,74 %
09.12.2022 15:42 3,4 C 2,8 C 0,0 C 82 % 1006,2 hPa 0,0 l/m 0 min 0 min 25 W/m 0,0 km/h (0 Bft) 100,00 %
09.12.2022 15:44 3,4 C 2,8 C 0,0 C 82 % 1006,2 hPa 0,0 l/m 0 min 0 min 26 W/m 0,0 km/h (0 Bft) 97,87 %
09.12.2022 15:46 3,3 C 2,8 C -0,6 C 82 % 1006,2 hPa 0,0 l/m 0 min 0 min 26 W/m 0,0 km/h (0 Bft) 95,74 %
09.12.2022 15:48 3,3 C 2,8 C -0,6 C 82 % 1006,2 hPa 0,0 l/m 0 min 0 min 23 W/m 0,0 km/h (0 Bft) 53,33 %
09.12.2022 15:50 3,2 C 2,8 C -0,6 C 82 % 1006,2 hPa 0,0 l/m 0 min 0 min 20 W/m 0,0 km/h (0 Bft) 95,74 %
09.12.2022 15:52 3,2 C 2,8 C -0,6 C 83 % 1006,2 hPa 0,0 l/m 0 min 0 min 19 W/m 0,0 km/h (0 Bft) 97,83 %
09.12.2022 15:54 3,2 C 2,8 C -0,6 C 83 % 1006,2 hPa 0,0 l/m 0 min 0 min 18 W/m 0,0 km/h (0 Bft) 100,00 %
09.12.2022 15:56 3,2 C 2,8 C -0,6 C 83 % 1006,3 hPa 0,0 l/m 0 min 0 min 15 W/m 0,0 km/h (0 Bft) 95,74 %
09.12.2022 15:58 3,1 C 2,8 C -0,6 C 83 % 1006,3 hPa 0,0 l/m 0 min 0 min 12 W/m 0,0 km/h (0 Bft) 97,87 %
09.12.2022 16:00 3,1 C 2,8 C -0,6 C 83 % 1006,3 hPa 0,0 l/m 0 min 0 min 11 W/m 0,0 km/h (0 Bft) 97,87 %
09.12.2022 16:02 3,1 C 2,2 C -0,6 C 83 % 1006,3 hPa 0,0 l/m 0 min 0 min 11 W/m 0,0 km/h (0 Bft) 97,87 %
09.12.2022 16:04 3,1 C 2,8 C -0,6 C 83 % 1006,3 hPa 0,0 l/m 0 min 0 min 9 W/m 0,0 km/h (0 Bft) 100,00 %
09.12.2022 16:06 3,1 C 2,8 C -0,6 C 83 % 1006,3 hPa 0,0 l/m 0 min 0 min 8 W/m 0,0 km/h (0 Bft) 100,00 %
09.12.2022 16:08 3,1 C 2,2 C -0,6 C 83 % 1006,3 hPa 0,0 l/m 0 min 0 min 7 W/m 0,0 km/h (0 Bft) 100,00 %
09.12.2022 16:10 3,1 C 2,2 C -0,6 C 83 % 1006,4 hPa 0,0 l/m 0 min 0 min 6 W/m 0,0 km/h (0 Bft) 97,87 %
09.12.2022 16:12 3,0 C 2,2 C -0,6 C 83 % 1006,3 hPa 0,0 l/m 0 min 0 min 5 W/m 0,0 km/h (0 Bft) 100,00 %
09.12.2022 16:14 3,0 C 2,2 C -0,6 C 84 % 1006,3 hPa 0,0 l/m 0 min 0 min 5 W/m 0,0 km/h (0 Bft) 100,00 %
09.12.2022 16:16 3,0 C 2,2 C -0,6 C 84 % 1006,3 hPa 0,0 l/m 0 min 0 min 5 W/m 0,0 km/h (0 Bft) 97,87 %
09.12.2022 16:18 3,0 C 2,2 C -0,6 C 84 % 1006,3 hPa 0,0 l/m 0 min 0 min 2 W/m 0,0 km/h (0 Bft) 97,83 %
09.12.2022 16:20 3,0 C 2,2 C -0,6 C 84 % 1006,4 hPa 0,0 l/m 0 min 0 min 0 W/m 0,0 km/h (0 Bft) 100,00 %
09.12.2022 16:22 3,0 C 2,2 C -0,6 C 84 % 1006,4 hPa 0,0 l/m 0 min 0 min 0 W/m 0,0 km/h (0 Bft) 100,00 %
09.12.2022 16:24 2,9 C 2,2 C -0,6 C 84 % 1006,3 hPa 0,0 l/m 0 min 0 min 0 W/m 0,0 km/h (0 Bft) 100,00 %
09.12.2022 16:26 2,9 C 2,2 C -0,6 C 84 % 1006,3 hPa 0,0 l/m 0 min 0 min 0 W/m 0,0 km/h (0 Bft) 100,00 %
09.12.2022 16:28 2,9 C 2,2 C -0,6 C 85 % 1006,4 hPa 0,0 l/m 0 min 0 min 0 W/m 0,0 km/h (0 Bft) 100,00 %
09.12.2022 16:30 2,9 C 2,2 C -0,6 C 85 % 1006,4 hPa 0,0 l/m 0 min 0 min 0 W/m 0,0 km/h (0 Bft) 97,87 %
09.12.2022 16:32 2,9 C 2,2 C -0,6 C 85 % 1006,4 hPa 0,0 l/m 0 min 0 min 0 W/m 0,0 km/h (0 Bft) 100,00 %
09.12.2022 16:34 2,9 C 2,2 C -0,6 C 85 % 1006,5 hPa 0,0 l/m 0 min 0 min 0 W/m 0,0 km/h (0 Bft) 95,74 %
09.12.2022 16:36 2,9 C 2,2 C -0,6 C 85 % 1006,5 hPa 0,0 l/m 0 min 0 min 0 W/m 0,0 km/h (0 Bft) 97,87 %
09.12.2022 16:38 2,8 C 2,2 C -1,1 C 85 % 1006,5 hPa 0,0 l/m 0 min 0 min 0 W/m 0,0 km/h (0 Bft) 97,87 %
09.12.2022 16:40 2,8 C 2,2 C -1,1 C 85 % 1006,5 hPa 0,0 l/m 0 min 0 min 0 W/m 0,0 km/h (0 Bft) 97,87 %
09.12.2022 16:42 2,8 C 2,2 C -1,1 C 85 % 1006,4 hPa 0,0 l/m 0 min 0 min 0 W/m 0,0 km/h (0 Bft) 97,87 %
09.12.2022 16:44 2,8 C 2,2 C -1,1 C 85 % 1006,4 hPa 0,0 l/m 0 min 0 min 0 W/m 0,0 km/h (0 Bft) 95,65 %
09.12.2022 16:46 2,8 C 2,2 C -1,1 C 85 % 1006,5 hPa 0,0 l/m 0 min 0 min 0 W/m 0,0 km/h (0 Bft) 95,74 %
09.12.2022 16:48 2,7 C 1,7 C -1,1 C 85 % 1006,5 hPa 0,0 l/m 0 min 0 min 0 W/m 0,0 km/h (0 Bft) 97,87 %
09.12.2022 16:50 2,7 C 1,7 C -1,1 C 85 % 1006,5 hPa 0,0 l/m 0 min 0 min 0 W/m 0,0 km/h (0 Bft) 95,74 %
09.12.2022 16:52 2,7 C 1,7 C -1,1 C 85 % 1006,5 hPa 0,0 l/m 0 min 0 min 0 W/m 0,0 km/h (0 Bft) 97,87 %
09.12.2022 16:54 2,7 C 1,7 C -1,1 C 85 % 1006,5 hPa 0,0 l/m 0 min 0 min 0 W/m 0,0 km/h (0 Bft) 100,00 %
09.12.2022 16:56 2,7 C 1,7 C -1,1 C 85 % 1006,5 hPa 0,0 l/m 0 min 0 min 0 W/m 0,0 km/h (0 Bft) 97,87 %
09.12.2022 16:58 2,7 C 1,7 C -1,1 C 85 % 1006,5 hPa 0,0 l/m 0 min 0 min 0 W/m 0,0 km/h (0 Bft) 97,83 %
09.12.2022 17:00 2,7 C 1,7 C -1,1 C 86 % 1006,5 hPa 0,0 l/m 0 min 0 min 0 W/m 0,0 km/h (0 Bft) 97,87 %
09.12.2022 17:02 2,6 C 1,7 C -1,1 C 86 % 1006,5 hPa 0,0 l/m 0 min 0 min 0 W/m 0,0 km/h (0 Bft) 95,74 %
09.12.2022 17:04 2,6 C 1,7 C -1,1 C 86 % 1006,5 hPa 0,0 l/m 0 min 0 min 0 W/m 0,0 km/h (0 Bft) 97,87 %
09.12.2022 17:06 2,6 C 1,7 C -1,1 C 86 % 1006,4 hPa 0,0 l/m 0 min 0 min 0 W/m 0,0 km/h (0 Bft) 97,87 %
09.12.2022 17:08 2,6 C 1,7 C -1,1 C 86 % 1006,5 hPa 0,0 l/m 0 min 0 min 0 W/m 0,0 km/h (0 Bft) 95,74 %
09.12.2022 17:10 2,6 C 1,7 C -1,1 C 86 % 1006,4 hPa 0,0 l/m 0 min 0 min 0 W/m 0,0 km/h (0 Bft) 95,74 %
09.12.2022 17:12 2,6 C 1,7 C -1,1 C 86 % 1006,4 hPa 0,0 l/m 0 min 0 min 0 W/m 0,0 km/h (0 Bft) 97,83 %
09.12.2022 17:14 2,5 C 1,7 C -1,1 C 86 % 1006,5 hPa 0,0 l/m 0 min 0 min 0 W/m 0,0 km/h (0 Bft) 97,87 %
09.12.2022 17:16 2,5 C 1,7 C -1,1 C 86 % 1006,5 hPa 0,0 l/m 0 min 0 min 0 W/m 0,0 km/h (0 Bft) 93,62 %
09.12.2022 17:18 2,5 C 1,7 C -1,1 C 87 % 1006,5 hPa 0,0 l/m 0 min 0 min 0 W/m 0,0 km/h (0 Bft) 91,49 %
09.12.2022 17:20 2,4 C 1,7 C -1,1 C 86 % 1006,5 hPa 0,0 l/m 0 min 0 min 0 W/m 0,0 km/h (0 Bft) 93,62 %
09.12.2022 17:22 2,4 C 1,7 C -1,1 C 87 % 1006,5 hPa 0,0 l/m 0 min 0 min 0 W/m 0,0 km/h (0 Bft) 93,48 %
09.12.2022 17:24 2,4 C 1,7 C -1,1 C 87 % 1006,5 hPa 0,0 l/m 0 min 0 min 0 W/m 0,0 km/h (0 Bft) 91,49 %
09.12.2022 17:26 2,4 C 1,7 C -1,1 C 87 % 1006,5 hPa 0,0 l/m 0 min 0 min 0 W/m 0,0 km/h (0 Bft) 93,62 %
09.12.2022 17:28 2,4 C 1,7 C -1,1 C 87 % 1006,5 hPa 0,0 l/m 0 min 0 min 0 W/m 0,0 km/h (0 Bft) 89,36 %
09.12.2022 17:30 2,4 C 1,7 C -1,1 C 87 % 1006,6 hPa 0,0 l/m 0 min 0 min 0 W/m 0,0 km/h (0 Bft) 93,62 %
09.12.2022 17:32 2,4 C 1,7 C -1,1 C 87 % 1006,5 hPa 0,0 l/m 0 min 0 min 0 W/m 0,0 km/h (0 Bft) 91,49 %
09.12.2022 17:34 2,3 C 1,7 C -1,1 C 87 % 1006,5 hPa 0,0 l/m 0 min 0 min 0 W/m 0,0 km/h (0 Bft) 93,62 %
09.12.2022 17:36 2,3 C 1,7 C -1,1 C 87 % 1006,5 hPa 0,0 l/m 0 min 0 min 0 W/m 0,0 km/h (0 Bft) 95,65 %
09.12.2022 17:38 2,3 C 1,7 C -1,1 C 87 % 1006,5 hPa 0,0 l/m 0 min 0 min 0 W/m 0,0 km/h (0 Bft) 91,49 %
09.12.2022 17:40 2,3 C 1,7 C -1,1 C 87 % 1006,5 hPa 0,0 l/m 0 min 0 min 0 W/m 0,0 km/h (0 Bft) 95,74 %
09.12.2022 17:42 2,3 C 1,7 C -1,1 C 87 % 1006,5 hPa 0,0 l/m 0 min 0 min 0 W/m 0,0 km/h (0 Bft) 95,74 %
09.12.2022 17:44 2,3 C 1,7 C -1,1 C 87 % 1006,5 hPa 0,0 l/m 0 min 0 min 0 W/m 0,0 km/h (0 Bft) 95,74 %
09.12.2022 17:46 2,2 C 1,7 C -1,1 C 87 % 1006,5 hPa 0,0 l/m 0 min 0 min 0 W/m 0,0 km/h (0 Bft) 97,87 %
09.12.2022 17:48 2,2 C 1,7 C -1,1 C 87 % 1006,5 hPa 0,0 l/m 0 min 0 min 0 W/m 0,0 km/h (0 Bft) 93,62 %
09.12.2022 17:50 2,2 C 1,1 C -1,1 C 87 % 1006,5 hPa 0,0 l/m 0 min 0 min 0 W/m 0,0 km/h (0 Bft) 97,83 %
09.12.2022 17:52 2,1 C 1,1 C -1,7 C 87 % 1006,5 hPa 0,0 l/m 0 min 0 min 0 W/m 0,0 km/h (0 Bft) 97,87 %
09.12.2022 17:54 2,1 C 1,1 C -1,7 C 87 % 1006,5 hPa 0,0 l/m 0 min 0 min 0 W/m 0,0 km/h (0 Bft) 100,00 %
09.12.2022 17:56 2,1 C 1,1 C -1,7 C 87 % 1006,5 hPa 0,0 l/m 0 min 0 min 0 W/m 0,0 km/h (0 Bft) 97,87 %
09.12.2022 17:58 2,1 C 1,1 C -1,7 C 87 % 1006,6 hPa 0,0 l/m 0 min 0 min 0 W/m 0,0 km/h (0 Bft) 100,00 %
09.12.2022 18:00 2,1 C 1,1 C -1,7 C 87 % 1006,6 hPa 0,0 l/m 0 min 0 min 0 W/m 0,0 km/h (0 Bft) 100,00 %
09.12.2022 18:02 2,0 C 1,1 C -1,7 C 87 % 1006,6 hPa 0,0 l/m 0 min 0 min 0 W/m 0,0 km/h (0 Bft) 100,00 %
09.12.2022 18:04 1,9 C 1,1 C -1,7 C 87 % 1006,6 hPa 0,0 l/m 0 min 0 min 0 W/m 0,0 km/h (0 Bft) 100,00 %
09.12.2022 18:08 1,9 C 1,1 C -1,7 C 87 % 1006,6 hPa 0,0 l/m 0 min 0 min 0 W/m 0,0 km/h (0 Bft) 100,00 %
09.12.2022 18:10 1,9 C 1,1 C -1,7 C 87 % 1006,6 hPa 0,0 l/m 0 min 0 min 0 W/m 0,0 km/h (0 Bft) 97,87 %
09.12.2022 18:12 1,9 C 1,1 C -1,7 C 87 % 1006,7 hPa 0,0 l/m 0 min 0 min 0 W/m 0,0 km/h (0 Bft) 97,83 %
09.12.2022 18:14 1,8 C 1,1 C -1,7 C 87 % 1006,7 hPa 0,0 l/m 0 min 0 min 0 W/m 0,0 km/h (0 Bft) 100,00 %
09.12.2022 18:16 1,8 C 1,1 C -1,7 C 87 % 1006,7 hPa 0,0 l/m 0 min 0 min 0 W/m 0,0 km/h (0 Bft) 100,00 %
09.12.2022 18:18 1,8 C 1,1 C -1,7 C 87 % 1006,7 hPa 0,0 l/m 0 min 0 min 0 W/m 0,0 km/h (0 Bft) 100,00 %
09.12.2022 18:20 1,8 C 1,1 C -1,7 C 87 % 1006,8 hPa 0,0 l/m 0 min 0 min 0 W/m 0,0 km/h (0 Bft) 100,00 %
09.12.2022 18:22 1,8 C 1,1 C -1,7 C 88 % 1006,8 hPa 0,0 l/m 0 min 0 min 0 W/m 0,0 km/h (0 Bft) 100,00 %
09.12.2022 18:24 1,8 C 1,1 C -1,7 C 88 % 1006,8 hPa 0,0 l/m 0 min 0 min 0 W/m 0,0 km/h (0 Bft) 100,00 %
09.12.2022 18:26 1,8 C 1,1 C -1,7 C 88 % 1006,8 hPa 0,0 l/m 0 min 0 min 0 W/m 0,0 km/h (0 Bft) 100,00 %
09.12.2022 18:28 1,8 C 1,1 C -1,7 C 88 % 1006,7 hPa 0,0 l/m 0 min 0 min 0 W/m 0,0 km/h (0 Bft) 100,00 %
09.12.2022 18:30 1,8 C 1,1 C -1,7 C 88 % 1006,8 hPa 0,0 l/m 0 min 0 min 0 W/m 0,0 km/h (0 Bft) 100,00 %
09.12.2022 18:32 1,8 C 1,1 C -1,7 C 88 % 1006,8 hPa 0,0 l/m 0 min 0 min 0 W/m 0,0 km/h (0 Bft) 100,00 %
09.12.2022 18:34 1,8 C 1,1 C -1,7 C 88 % 1006,8 hPa 0,0 l/m 0 min 0 min 0 W/m 0,0 km/h (0 Bft) 100,00 %
09.12.2022 18:36 1,8 C 1,1 C -1,7 C 88 % 1006,8 hPa 0,0 l/m 0 min 0 min 0 W/m 0,0 km/h (0 Bft) 100,00 %
09.12.2022 18:38 1,8 C 1,1 C -1,7 C 88 % 1006,9 hPa 0,0 l/m 0 min 0 min 0 W/m 0,0 km/h (0 Bft) 100,00 %
09.12.2022 18:40 1,8 C 1,1 C -1,7 C 88 % 1006,9 hPa 0,0 l/m 0 min 0 min 0 W/m 0,0 km/h (0 Bft) 100,00 %
09.12.2022 18:42 1,8 C 1,1 C -1,7 C 88 % 1006,9 hPa 0,0 l/m 0 min 0 min 0 W/m 0,0 km/h (0 Bft) 100,00 %
09.12.2022 18:44 1,8 C 1,1 C -1,7 C 88 % 1006,9 hPa 0,0 l/m 0 min 0 min 0 W/m 0,0 km/h (0 Bft) 97,87 %
09.12.2022 18:46 1,9 C 1,1 C -1,7 C 88 % 1006,9 hPa 0,0 l/m 0 min 0 min 0 W/m 0,0 km/h (0 Bft) 100,00 %
09.12.2022 18:48 1,9 C 1,1 C -1,7 C 88 % 1006,9 hPa 0,0 l/m 0 min 0 min 0 W/m 0,0 km/h (0 Bft) 100,00 %
09.12.2022 18:50 1,9 C 1,1 C -1,7 C 89 % 1006,9 hPa 0,0 l/m 0 min 0 min 0 W/m 0,0 km/h (0 Bft) 97,83 %
09.12.2022 18:52 1,9 C 1,1 C -1,7 C 89 % 1006,9 hPa 0,0 l/m 0 min 0 min 0 W/m 0,0 km/h (0 Bft) 100,00 %
09.12.2022 18:54 1,9 C 1,1 C -1,7 C 89 % 1006,9 hPa 0,0 l/m 0 min 0 min 0 W/m 0,0 km/h (0 Bft) 100,00 %
09.12.2022 18:56 1,9 C 1,1 C -1,1 C 88 % 1006,9 hPa 0,0 l/m 0 min 0 min 0 W/m 0,0 km/h (0 Bft) 100,00 %
09.12.2022 18:58 1,9 C 1,1 C -1,7 C 88 % 1006,8 hPa 0,0 l/m 0 min 0 min 0 W/m 0,0 km/h (0 Bft) 97,87 %
09.12.2022 19:00 1,9 C 1,1 C -1,7 C 88 % 1006,9 hPa 0,0 l/m 0 min 0 min 0 W/m 0,0 km/h (0 Bft) 97,87 %
09.12.2022 19:02 1,9 C 1,1 C -1,7 C 88 % 1006,9 hPa 0,0 l/m 0 min 0 min 0 W/m 0,0 km/h (0 Bft) 97,87 %
09.12.2022 19:04 1,9 C 1,1 C -1,7 C 88 % 1006,9 hPa 0,0 l/m 0 min 0 min 0 W/m 0,0 km/h (0 Bft) 97,83 %
09.12.2022 19:06 1,9 C 1,1 C -1,7 C 89 % 1006,9 hPa 0,0 l/m 0 min 0 min 0 W/m 0,0 km/h (0 Bft) 97,87 %
09.12.2022 19:08 1,9 C 0,6 C -1,7 C 89 % 1006,9 hPa 0,0 l/m 0 min 0 min 0 W/m 0,0 km/h (0 Bft) 94,29 %
09.12.2022 19:10 1,8 C 0,6 C -2,2 C 89 % 1006,9 hPa 0,0 l/m 0 min 0 min 0 W/m 0,0 km/h (0 Bft) 97,87 %
09.12.2022 19:12 1,8 C 0,6 C -2,2 C 88 % 1006,9 hPa 0,0 l/m 0 min 0 min 0 W/m 0,0 km/h (0 Bft) 97,87 %
09.12.2022 19:14 1,8 C 0,6 C -2,2 C 88 % 1007,0 hPa 0,0 l/m 0 min 0 min 0 W/m 0,0 km/h (0 Bft) 97,87 %
09.12.2022 19:16 1,8 C 0,0 C -2,2 C 88 % 1007,0 hPa 0,0 l/m 0 min 0 min 0 W/m 0,0 km/h (0 Bft) 97,87 %
09.12.2022 19:18 1,7 C 0,0 C -2,8 C 88 % 1007,1 hPa 0,0 l/m 0 min 0 min 0 W/m 0,0 km/h (0 Bft) 93,62 %
09.12.2022 19:20 1,7 C 0,0 C -2,8 C 88 % 1007,1 hPa 0,0 l/m 0 min 0 min 0 W/m 0,0 km/h (0 Bft) 97,83 %
09.12.2022 19:22 1,7 C -0,6 C -2,8 C 88 % 1007,1 hPa 0,0 l/m 0 min 0 min 0 W/m 0,0 km/h (0 Bft) 95,74 %
09.12.2022 19:24 1,6 C -0,6 C -2,8 C 88 % 1007,2 hPa 0,0 l/m 0 min 0 min 0 W/m 0,0 km/h (0 Bft) 93,62 %
09.12.2022 19:26 1,6 C -0,6 C -2,8 C 88 % 1007,2 hPa 0,0 l/m 0 min 0 min 0 W/m 0,0 km/h (0 Bft) 97,87 %
09.12.2022 19:28 1,6 C -0,6 C -3,3 C 88 % 1007,2 hPa 0,0 l/m 0 min 0 min 0 W/m 0,0 km/h (0 Bft) 97,87 %
09.12.2022 19:30 1,5 C -0,6 C -3,3 C 88 % 1007,2 hPa 0,0 l/m 0 min 0 min 0 W/m 0,0 km/h (0 Bft) 95,74 %
09.12.2022 19:32 1,4 C -0,6 C -3,3 C 87 % 1007,2 hPa 0,0 l/m 0 min 0 min 0 W/m 0,0 km/h (0 Bft) 97,87 %
09.12.2022 19:34 1,3 C -1,1 C -3,3 C 87 % 1007,2 hPa 0,0 l/m 0 min 0 min 0 W/m 0,0 km/h (0 Bft) 95,65 %
09.12.2022 19:36 1,3 C -1,1 C -3,3 C 87 % 1007,2 hPa 0,0 l/m 0 min 0 min 0 W/m 0,0 km/h (0 Bft) 95,74 %
09.12.2022 19:38 1,2 C -1,1 C -3,3 C 87 % 1007,2 hPa 0,0 l/m 0 min 0 min 0 W/m 0,0 km/h (0 Bft) 97,87 %
09.12.2022 19:40 1,2 C -1,1 C -3,3 C 87 % 1007,2 hPa 0,0 l/m 0 min 0 min 0 W/m 0,0 km/h (0 Bft) 95,74 %
09.12.2022 19:42 1,1 C -1,1 C -3,3 C 87 % 1007,2 hPa 0,0 l/m 0 min 0 min 0 W/m 0,0 km/h (0 Bft) 95,74 %
09.12.2022 19:44 1,1 C -1,1 C -3,3 C 87 % 1007,2 hPa 0,0 l/m 0 min 0 min 0 W/m 0,0 km/h (0 Bft) 97,87 %
09.12.2022 19:46 1,0 C -1,1 C -3,3 C 87 % 1007,3 hPa 0,0 l/m 0 min 0 min 0 W/m 0,0 km/h (0 Bft) 97,83 %
09.12.2022 19:48 1,0 C -1,1 C -3,3 C 87 % 1007,3 hPa 0,0 l/m 0 min 0 min 0 W/m 0,0 km/h (0 Bft) 95,74 %
09.12.2022 19:50 0,9 C -1,1 C -3,3 C 87 % 1007,3 hPa 0,0 l/m 0 min 0 min 0 W/m 0,0 km/h (0 Bft) 93,62 %
09.12.2022 19:52 0,9 C -1,1 C -3,3 C 87 % 1007,3 hPa 0,0 l/m 0 min 0 min 0 W/m 0,0 km/h (0 Bft) 100,00 %
09.12.2022 19:54 0,8 C -0,6 C -3,3 C 87 % 1007,3 hPa 0,0 l/m 0 min 0 min 0 W/m 0,0 km/h (0 Bft) 97,87 %
09.12.2022 19:56 0,8 C -0,6 C -3,3 C 87 % 1007,4 hPa 0,0 l/m 0 min 0 min 0 W/m 0,0 km/h (0 Bft) 100,00 %
09.12.2022 19:58 0,7 C -0,6 C -3,3 C 87 % 1007,4 hPa 0,0 l/m 0 min 0 min 0 W/m 0,0 km/h (0 Bft) 100,00 %
09.12.2022 20:00 0,7 C -0,6 C -2,8 C 87 % 1007,4 hPa 0,0 l/m 0 min 0 min 0 W/m 0,0 km/h (0 Bft) 97,83 %
09.12.2022 20:02 0,6 C -0,6 C -2,8 C 87 % 1007,5 hPa 0,0 l/m 0 min 0 min 0 W/m 0,0 km/h (0 Bft) 97,87 %
09.12.2022 20:04 0,6 C -0,6 C -2,8 C 87 % 1007,4 hPa 0,0 l/m 0 min 0 min 0 W/m 0,0 km/h (0 Bft) 100,00 %
09.12.2022 20:06 0,6 C 0,0 C -2,8 C 87 % 1007,4 hPa 0,0 l/m 0 min 0 min 0 W/m 0,0 km/h (0 Bft) 98,31 %
09.12.2022 20:08 0,6 C 0,0 C -2,8 C 87 % 1007,4 hPa 0,0 l/m 0 min 0 min 0 W/m 0,0 km/h (0 Bft) 100,00 %
09.12.2022 20:10 0,6 C 0,0 C -2,8 C 87 % 1007,4 hPa 0,0 l/m 0 min 0 min 0 W/m 0,0 km/h (0 Bft) 97,87 %
09.12.2022 20:12 0,6 C 0,0 C -2,8 C 87 % 1007,5 hPa 0,0 l/m 0 min 0 min 0 W/m 0,0 km/h (0 Bft) 97,83 %
09.12.2022 20:14 0,6 C 0,0 C -2,8 C 88 % 1007,4 hPa 0,0 l/m 0 min 0 min 0 W/m 0,0 km/h (0 Bft) 97,87 %
09.12.2022 20:16 0,6 C 0,0 C -2,8 C 88 % 1007,4 hPa 0,0 l/m 0 min 0 min 0 W/m 0,0 km/h (0 Bft) 100,00 %
09.12.2022 20:18 0,5 C 0,0 C -2,8 C 88 % 1007,5 hPa 0,0 l/m 0 min 0 min 0 W/m 0,0 km/h (0 Bft) 100,00 %
09.12.2022 20:20 0,5 C 0,0 C -2,8 C 88 % 1007,5 hPa 0,0 l/m 0 min 0 min 0 W/m 0,0 km/h (0 Bft) 100,00 %
09.12.2022 20:22 0,5 C 0,0 C -2,8 C 88 % 1007,5 hPa 0,0 l/m 0 min 0 min 0 W/m 0,0 km/h (0 Bft) 100,00 %
09.12.2022 20:24 0,4 C 0,0 C -2,8 C 88 % 1007,5 hPa 0,0 l/m 0 min 0 min 0 W/m 0,0 km/h (0 Bft) 97,87 %
09.12.2022 20:26 0,4 C 0,0 C -2,8 C 88 % 1007,5 hPa 0,0 l/m 0 min 0 min 0 W/m 0,0 km/h (0 Bft) 97,83 %
09.12.2022 20:28 0,4 C 0,0 C -2,8 C 88 % 1007,5 hPa 0,0 l/m 0 min 0 min 0 W/m 0,0 km/h (0 Bft) 97,87 %
09.12.2022 20:30 0,4 C 0,0 C -2,8 C 88 % 1007,6 hPa 0,0 l/m 0 min 0 min 0 W/m 0,0 km/h (0 Bft) 91,49 %
09.12.2022 20:32 0,4 C 0,0 C -2,8 C 88 % 1007,6 hPa 0,0 l/m 0 min 0 min 0 W/m 0,0 km/h (0 Bft) 93,62 %
09.12.2022 20:34 0,4 C 0,0 C -2,8 C 88 % 1007,6 hPa 0,0 l/m 0 min 0 min 0 W/m 0,0 km/h (0 Bft) 93,62 %
09.12.2022 20:36 0,4 C 0,0 C -2,8 C 89 % 1007,6 hPa 0,0 l/m 0 min 0 min 0 W/m 0,0 km/h (0 Bft) 93,62 %
09.12.2022 20:38 0,4 C 0,0 C -2,8 C 88 % 1007,6 hPa 0,0 l/m 0 min 0 min 0 W/m 0,0 km/h (0 Bft) 95,65 %
09.12.2022 20:40 0,4 C 0,0 C -2,8 C 88 % 1007,6 hPa 0,0 l/m 0 min 0 min 0 W/m 0,0 km/h (0 Bft) 95,74 %
09.12.2022 20:42 0,4 C 0,0 C -2,8 C 89 % 1007,6 hPa 0,0 l/m 0 min 0 min 0 W/m 0,0 km/h (0 Bft) 95,74 %
09.12.2022 20:44 0,4 C 0,0 C -2,8 C 89 % 1007,6 hPa 0,0 l/m 0 min 0 min 0 W/m 0,0 km/h (0 Bft) 95,74 %
09.12.2022 20:46 0,4 C 0,0 C -2,8 C 89 % 1007,6 hPa 0,0 l/m 0 min 0 min 0 W/m 0,0 km/h (0 Bft) 95,74 %
09.12.2022 20:48 0,4 C 0,0 C -2,8 C 89 % 1007,6 hPa 0,0 l/m 0 min 0 min 0 W/m 0,0 km/h (0 Bft) 95,74 %
09.12.2022 20:50 0,4 C 0,0 C -2,8 C 89 % 1007,6 hPa 0,0 l/m 0 min 0 min 0 W/m 0,0 km/h (0 Bft) 91,49 %
09.12.2022 20:52 0,4 C 0,0 C -2,8 C 89 % 1007,6 hPa 0,0 l/m 0 min 0 min 0 W/m 0,0 km/h (0 Bft) 95,65 %
09.12.2022 20:54 0,4 C 0,0 C -2,8 C 89 % 1007,6 hPa 0,0 l/m 0 min 0 min 0 W/m 0,0 km/h (0 Bft) 95,74 %
09.12.2022 20:56 0,4 C 0,0 C -2,8 C 89 % 1007,6 hPa 0,0 l/m 0 min 0 min 0 W/m 0,0 km/h (0 Bft) 95,74 %
09.12.2022 20:58 0,4 C 0,0 C -2,8 C 89 % 1007,6 hPa 0,0 l/m 0 min 0 min 0 W/m 0,0 km/h (0 Bft) 97,87 %
09.12.2022 21:00 0,4 C 0,0 C -2,8 C 89 % 1007,6 hPa 0,0 l/m 0 min 0 min 0 W/m 0,0 km/h (0 Bft) 97,87 %
09.12.2022 21:02 0,4 C 0,0 C -2,8 C 89 % 1007,6 hPa 0,0 l/m 0 min 0 min 0 W/m 0,0 km/h (0 Bft) 97,87 %
09.12.2022 21:04 0,4 C -0,6 C -2,8 C 89 % 1007,6 hPa 0,0 l/m 0 min 0 min 0 W/m 0,0 km/h (0 Bft) 97,83 %
09.12.2022 21:06 0,4 C -0,6 C -2,8 C 89 % 1007,6 hPa 0,0 l/m 0 min 0 min 0 W/m 0,0 km/h (0 Bft) 94,92 %
09.12.2022 21:08 0,4 C -0,6 C -2,8 C 89 % 1007,6 hPa 0,0 l/m 0 min 0 min 0 W/m 0,0 km/h (0 Bft) 97,14 %
09.12.2022 21:10 0,4 C -0,6 C -2,8 C 89 % 1007,6 hPa 0,0 l/m 0 min 0 min 0 W/m 0,0 km/h (0 Bft) 95,74 %
09.12.2022 21:12 0,4 C -0,6 C -2,8 C 90 % 1007,7 hPa 0,0 l/m 0 min 0 min 0 W/m 0,0 km/h (0 Bft) 95,74 %
09.12.2022 21:14 0,4 C -0,6 C -2,8 C 90 % 1007,7 hPa 0,0 l/m 0 min 0 min 0 W/m 0,0 km/h (0 Bft) 95,74 %
09.12.2022 21:16 0,4 C -0,6 C -2,8 C 90 % 1007,7 hPa 0,0 l/m 0 min 0 min 0 W/m 0,0 km/h (0 Bft) 91,30 %
09.12.2022 21:18 0,4 C -0,6 C -2,8 C 90 % 1007,6 hPa 0,0 l/m 0 min 0 min 0 W/m 0,0 km/h (0 Bft) 93,62 %
09.12.2022 21:20 0,4 C -0,6 C -2,8 C 90 % 1007,7 hPa 0,0 l/m 0 min 0 min 0 W/m 0,0 km/h (0 Bft) 95,74 %
09.12.2022 21:22 0,4 C -0,6 C -2,8 C 90 % 1007,7 hPa 0,0 l/m 0 min 0 min 0 W/m 0,0 km/h (0 Bft) 95,74 %
09.12.2022 21:24 0,4 C -0,6 C -2,8 C 90 % 1007,7 hPa 0,0 l/m 0 min 0 min 0 W/m 0,0 km/h (0 Bft) 93,62 %
09.12.2022 21:26 0,4 C -0,6 C -2,8 C 90 % 1007,7 hPa 0,0 l/m 0 min 0 min 0 W/m 0,0 km/h (0 Bft) 93,62 %
09.12.2022 21:28 0,4 C -0,6 C -2,8 C 90 % 1007,7 hPa 0,0 l/m 0 min 0 min 0 W/m 0,0 km/h (0 Bft) 95,65 %
09.12.2022 21:30 0,4 C -0,6 C -3,3 C 90 % 1007,7 hPa 0,0 l/m 0 min 0 min 0 W/m 0,0 km/h (0 Bft) 93,62 %
09.12.2022 21:32 0,3 C -1,1 C -3,3 C 90 % 1007,6 hPa 0,0 l/m 0 min 0 min 0 W/m 0,0 km/h (0 Bft) 95,74 %
09.12.2022 21:34 0,3 C -1,1 C -3,3 C 90 % 1007,7 hPa 0,0 l/m 0 min 0 min 0 W/m 0,0 km/h (0 Bft) 95,74 %
09.12.2022 21:36 0,3 C -1,1 C -3,3 C 90 % 1007,7 hPa 0,0 l/m 0 min 0 min 0 W/m 0,0 km/h (0 Bft) 97,87 %
09.12.2022 21:38 0,3 C -1,1 C -3,3 C 90 % 1007,7 hPa 0,0 l/m 0 min 0 min 0 W/m 0,0 km/h (0 Bft) 97,87 %
09.12.2022 21:40 0,3 C -1,1 C -3,3 C 90 % 1007,7 hPa 0,0 l/m 0 min 0 min 0 W/m 0,0 km/h (0 Bft) 97,87 %
09.12.2022 21:42 0,3 C -1,7 C -3,9 C 90 % 1007,8 hPa 0,0 l/m 0 min 0 min 0 W/m 0,0 km/h (0 Bft) 97,83 %
09.12.2022 21:44 0,2 C -1,7 C -3,9 C 90 % 1007,8 hPa 0,0 l/m 0 min 0 min 0 W/m 0,0 km/h (0 Bft) 100,00 %
09.12.2022 21:46 0,2 C -1,7 C -3,9 C 90 % 1007,8 hPa 0,0 l/m 0 min 0 min 0 W/m 0,0 km/h (0 Bft) 97,87 %
09.12.2022 21:48 0,2 C -1,7 C -3,9 C 90 % 1007,8 hPa 0,0 l/m 0 min 0 min 0 W/m 0,0 km/h (0 Bft) 97,87 %
09.12.2022 21:50 0,1 C -1,7 C -3,9 C 90 % 1007,8 hPa 0,0 l/m 0 min 0 min 0 W/m 0,0 km/h (0 Bft) 97,87 %
09.12.2022 21:52 0,1 C -1,7 C -3,9 C 90 % 1007,8 hPa 0,0 l/m 0 min 0 min 0 W/m 0,0 km/h (0 Bft) 100,00 %
09.12.2022 21:54 0,1 C -1,7 C -3,9 C 90 % 1007,8 hPa 0,0 l/m 0 min 0 min 0 W/m 0,0 km/h (0 Bft) 97,87 %
09.12.2022 21:56 0,0 C -1,7 C -3,9 C 90 % 1007,9 hPa 0,0 l/m 0 min 0 min 0 W/m 0,0 km/h (0 Bft) 97,83 %
09.12.2022 21:58 0,0 C -1,7 C -3,9 C 90 % 1007,9 hPa 0,0 l/m 0 min 0 min 0 W/m 0,0 km/h (0 Bft) 97,87 %
09.12.2022 22:00 -0,1 C -1,7 C -3,9 C 90 % 1007,8 hPa 0,0 l/m 0 min 0 min 0 W/m 0,0 km/h (0 Bft) 97,87 %
09.12.2022 22:02 -0,1 C -1,7 C -3,9 C 90 % 1007,9 hPa 0,0 l/m 0 min 0 min 0 W/m 0,0 km/h (0 Bft) 100,00 %
09.12.2022 22:04 -0,2 C -1,7 C -3,9 C 90 % 1007,9 hPa 0,0 l/m 0 min 0 min 0 W/m 0,0 km/h (0 Bft) 97,87 %
09.12.2022 22:06 -0,2 C -1,7 C -3,9 C 90 % 1007,9 hPa 0,0 l/m 0 min 0 min 0 W/m 0,0 km/h (0 Bft) 96,55 %
09.12.2022 22:08 -0,2 C -2,2 C -3,9 C 90 % 1007,9 hPa 0,0 l/m 0 min 0 min 0 W/m 0,0 km/h (0 Bft) 94,29 %
09.12.2022 22:10 -0,3 C -2,2 C -4,4 C 90 % 1007,9 hPa 0,0 l/m 0 min 0 min 0 W/m 0,0 km/h (0 Bft) 97,87 %
09.12.2022 22:12 -0,3 C -2,2 C -4,4 C 90 % 1007,9 hPa 0,0 l/m 0 min 0 min 0 W/m 0,0 km/h (0 Bft) 97,87 %
09.12.2022 22:14 -0,3 C -2,2 C -4,4 C 90 % 1007,9 hPa 0,0 l/m 0 min 0 min 0 W/m 0,0 km/h (0 Bft) 97,87 %
09.12.2022 22:16 -0,4 C -2,2 C -4,4 C 90 % 1007,9 hPa 0,0 l/m 0 min 0 min 0 W/m 0,0 km/h (0 Bft) 97,87 %
09.12.2022 22:18 -0,4 C -2,2 C -4,4 C 90 % 1007,9 hPa 0,0 l/m 0 min 0 min 0 W/m 0,0 km/h (0 Bft) 97,87 %
09.12.2022 22:20 -0,4 C -2,2 C -4,4 C 90 % 1007,9 hPa 0,0 l/m 0 min 0 min 0 W/m 0,0 km/h (0 Bft) 97,83 %
09.12.2022 22:22 -0,5 C -2,2 C -4,4 C 90 % 1008,0 hPa 0,0 l/m 0 min 0 min 0 W/m 0,0 km/h (0 Bft) 95,74 %
09.12.2022 22:24 -0,6 C -2,2 C -4,4 C 90 % 1008,0 hPa 0,0 l/m 0 min 0 min 0 W/m 0,0 km/h (0 Bft) 97,87 %
09.12.2022 22:26 -0,6 C -2,2 C -4,4 C 90 % 1008,0 hPa 0,0 l/m 0 min 0 min 0 W/m 0,0 km/h (0 Bft) 97,87 %
09.12.2022 22:28 -0,6 C -2,2 C -4,4 C 90 % 1008,0 hPa 0,0 l/m 0 min 0 min 0 W/m 0,0 km/h (0 Bft) 97,87 %
09.12.2022 22:30 -0,7 C -2,2 C -4,4 C 90 % 1008,0 hPa 0,0 l/m 0 min 0 min 0 W/m 0,0 km/h (0 Bft) 100,00 %
09.12.2022 22:32 -0,7 C -2,2 C -4,4 C 90 % 1008,0 hPa 0,0 l/m 0 min 0 min 0 W/m 0,0 km/h (0 Bft) 100,00 %
09.12.2022 22:34 -0,7 C -2,2 C -4,4 C 90 % 1008,0 hPa 0,0 l/m 0 min 0 min 0 W/m 0,0 km/h (0 Bft) 97,87 %
09.12.2022 22:36 -0,8 C -1,7 C -3,9 C 90 % 1008,0 hPa 0,0 l/m 0 min 0 min 0 W/m 0,0 km/h (0 Bft) 100,00 %
09.12.2022 22:38 -0,8 C -1,7 C -3,9 C 90 % 1008,1 hPa 0,0 l/m 0 min 0 min 0 W/m 0,0 km/h (0 Bft) 100,00 %
09.12.2022 22:40 -0,8 C -1,7 C -3,9 C 90 % 1008,1 hPa 0,0 l/m 0 min 0 min 0 W/m 0,0 km/h (0 Bft) 100,00 %
09.12.2022 22:42 -0,9 C -1,7 C -3,9 C 90 % 1008,1 hPa 0,0 l/m 0 min 0 min 0 W/m 0,0 km/h (0 Bft) 100,00 %
09.12.2022 22:44 -0,9 C -1,7 C -3,9 C 90 % 1008,1 hPa 0,0 l/m 0 min 0 min 0 W/m 0,0 km/h (0 Bft) 100,00 %
09.12.2022 22:46 -0,9 C -1,7 C -3,9 C 90 % 1008,1 hPa 0,0 l/m 0 min 0 min 0 W/m 0,0 km/h (0 Bft) 95,65 %
09.12.2022 22:48 -1,0 C -1,7 C -3,9 C 90 % 1008,1 hPa 0,0 l/m 0 min 0 min 0 W/m 0,0 km/h (0 Bft) 100,00 %
09.12.2022 22:50 -1,0 C -1,7 C -3,9 C 90 % 1008,1 hPa 0,0 l/m 0 min 0 min 0 W/m 0,0 km/h (0 Bft) 97,87 %
09.12.2022 22:52 -1,0 C -1,7 C -3,9 C 90 % 1008,1 hPa 0,0 l/m 0 min 0 min 0 W/m 0,0 km/h (0 Bft) 100,00 %
09.12.2022 22:54 -1,1 C -1,7 C -3,9 C 90 % 1008,1 hPa 0,0 l/m 0 min 0 min 0 W/m 0,0 km/h (0 Bft) 97,87 %
09.12.2022 22:56 -1,1 C -1,7 C -3,9 C 90 % 1008,2 hPa 0,0 l/m 0 min 0 min 0 W/m 0,0 km/h (0 Bft) 100,00 %
09.12.2022 22:58 -1,1 C -1,7 C -3,9 C 90 % 1008,2 hPa 0,0 l/m 0 min 0 min 0 W/m 0,0 km/h (0 Bft) 95,65 %
09.12.2022 23:00 -1,1 C -1,7 C -3,9 C 90 % 1008,2 hPa 0,0 l/m 0 min 0 min 0 W/m 0,0 km/h (0 Bft) 100,00 %
09.12.2022 23:02 -1,1 C -1,7 C -3,9 C 90 % 1008,1 hPa 0,0 l/m 0 min 0 min 0 W/m 0,0 km/h (0 Bft) 100,00 %
09.12.2022 23:04 -1,1 C -1,7 C -3,3 C 90 % 1008,1 hPa 0,0 l/m 0 min 0 min 0 W/m 0,0 km/h (0 Bft) 97,87 %
09.12.2022 23:06 -1,1 C -1,7 C -3,3 C 91 % 1008,1 hPa 0,0 l/m 0 min 0 min 0 W/m 0,0 km/h (0 Bft) 98,31 %
09.12.2022 23:08 -1,1 C -1,7 C -3,3 C 91 % 1008,1 hPa 0,0 l/m 0 min 0 min 0 W/m 0,0 km/h (0 Bft) 97,14 %
09.12.2022 23:10 -1,1 C -1,7 C -3,3 C 90 % 1008,1 hPa 0,0 l/m 0 min 0 min 0 W/m 0,0 km/h (0 Bft) 97,87 %
09.12.2022 23:12 -1,1 C -1,7 C -3,3 C 90 % 1008,1 hPa 0,0 l/m 0 min 0 min 0 W/m 0,0 km/h (0 Bft) 97,83 %
09.12.2022 23:14 -1,1 C -1,7 C -3,3 C 90 % 1008,1 hPa 0,0 l/m 0 min 0 min 0 W/m 0,0 km/h (0 Bft) 95,74 %
09.12.2022 23:16 -1,1 C -1,7 C -3,3 C 91 % 1008,1 hPa 0,0 l/m 0 min 0 min 0 W/m 0,0 km/h (0 Bft) 95,74 %
09.12.2022 23:18 -1,1 C -1,7 C -3,3 C 91 % 1008,1 hPa 0,0 l/m 0 min 0 min 0 W/m 0,0 km/h (0 Bft) 97,87 %
09.12.2022 23:20 -1,1 C -1,7 C -3,3 C 91 % 1008,1 hPa 0,0 l/m 0 min 0 min 0 W/m 0,0 km/h (0 Bft) 100,00 %
09.12.2022 23:22 -1,1 C -1,7 C -3,3 C 91 % 1008,0 hPa 0,0 l/m 0 min 0 min 0 W/m 0,0 km/h (0 Bft) 100,00 %
09.12.2022 23:24 -1,1 C -1,7 C -3,9 C 91 % 1008,0 hPa 0,0 l/m 0 min 0 min 0 W/m 0,0 km/h (0 Bft) 97,83 %
09.12.2022 23:26 -1,1 C -1,7 C -3,9 C 91 % 1008,1 hPa 0,0 l/m 0 min 0 min 0 W/m 0,0 km/h (0 Bft) 100,00 %
09.12.2022 23:28 -1,1 C -1,7 C -3,9 C 91 % 1008,1 hPa 0,0 l/m 0 min 0 min 0 W/m 0,0 km/h (0 Bft) 100,00 %
09.12.2022 23:30 -1,1 C -1,7 C -3,9 C 91 % 1008,1 hPa 0,0 l/m 0 min 0 min 0 W/m 0,0 km/h (0 Bft) 100,00 %
09.12.2022 23:32 -1,1 C -1,7 C -3,9 C 91 % 1008,2 hPa 0,0 l/m 0 min 0 min 0 W/m 0,0 km/h (0 Bft) 97,87 %
09.12.2022 23:34 -1,1 C -1,7 C -3,9 C 91 % 1008,2 hPa 0,0 l/m 0 min 0 min 0 W/m 0,0 km/h (0 Bft) 100,00 %
09.12.2022 23:36 -1,1 C -1,7 C -3,9 C 91 % 1008,1 hPa 0,0 l/m 0 min 0 min 0 W/m 0,0 km/h (0 Bft) 97,83 %
09.12.2022 23:38 -1,1 C -1,7 C -3,9 C 91 % 1008,1 hPa 0,0 l/m 0 min 0 min 0 W/m 0,0 km/h (0 Bft) 97,87 %
09.12.2022 23:40 -1,0 C -1,7 C -3,9 C 91 % 1008,2 hPa 0,0 l/m 0 min 0 min 0 W/m 0,0 km/h (0 Bft) 95,74 %
09.12.2022 23:42 -1,0 C -1,7 C -3,9 C 91 % 1008,1 hPa 0,0 l/m 0 min 0 min 0 W/m 0,0 km/h (0 Bft) 95,74 %
09.12.2022 23:44 -1,0 C -1,7 C -3,9 C 91 % 1008,2 hPa 0,0 l/m 0 min 0 min 0 W/m 0,0 km/h (0 Bft) 97,87 %
09.12.2022 23:46 -0,9 C -1,7 C -3,9 C 91 % 1008,2 hPa 0,0 l/m 0 min 0 min 0 W/m 0,0 km/h (0 Bft) 97,87 %
09.12.2022 23:48 -0,9 C -1,7 C -3,9 C 91 % 1008,2 hPa 0,0 l/m 0 min 0 min 0 W/m 0,0 km/h (0 Bft) 97,87 %
09.12.2022 23:50 -1,0 C -1,7 C -3,9 C 91 % 1008,2 hPa 0,0 l/m 0 min 0 min 0 W/m 0,0 km/h (0 Bft) 97,83 %
09.12.2022 23:52 -1,0 C -1,7 C -3,9 C 91 % 1008,2 hPa 0,0 l/m 0 min 0 min 0 W/m 0,0 km/h (0 Bft) 97,87 %
09.12.2022 23:54 -1,0 C -2,2 C -3,9 C 91 % 1008,2 hPa 0,0 l/m 0 min 0 min 0 W/m 0,0 km/h (0 Bft) 97,87 %
09.12.2022 23:56 -1,0 C -2,2 C -3,9 C 91 % 1008,2 hPa 0,0 l/m 0 min 0 min 0 W/m 0,0 km/h (0 Bft) 95,74 %
09.12.2022 23:58 -1,0 C -2,2 C -3,9 C 91 % 1008,2 hPa 0,0 l/m 0 min 0 min 0 W/m 0,0 km/h (0 Bft) 97,87 %
_ Min-Zeit 22:54 22:08 22:10 13:38 14:06 - - - - 00:48 12:28
Minimum _ -1,1 C -2,2 C -4,4 C 79 % 1005,9 hPa - - - - 0,0 km/h (0 Bft) 34,29 %
_ Max-Zeit 13:30 13:16 13:44 03:18 22:56 13:44 12:02 00:00 13:16 00:34 00:00
Maximum _ 4,2 C 6,7 C 1,7 C 93 % 1008,2 hPa 0,2 l/m 2 min 0 min 256 W/m 16,1 km/h
S (3 Bft)
100,00 %
Durchschnitt _ 1,9 C 1,5 C -1,1 C 89 % 1006,9 hPa #0,2 l/m #50 min. #0 min. 76 W/m 1,1 km/h (1 Bft) 96,98 %
© 2022 W. Hausmann